<?xml version="1.0" encoding="UTF-8" standalone="no" ?>
<gpx xmlns="http://www.topografix.com/GPX/1/1" xmlns:xsi="http://www.w3.org/2001/XMLSchema-instance" xsi:schemaLocation="http://www.topografix.com/GPX/1/1 http://www.topografix.com/GPX/1/1/gpx.xsd" version="1.1" creator="VisuGPX - https://www.visugpx.com">
  <metadata>
    <name>Les Pontets - Mont Saint-Sorlin</name>
    <desc><![CDATA[randonnée effectuée le 20 mai 2019]]></desc>
  </metadata>
  <trk>
    <name><![CDATA[20 mai 2019 à 12:45:09]]></name>
    <trkseg>
      <trkpt lat="46.7196" lon="6.17159">
        <ele>1011</ele>
        <time>2019-05-20T10:45:09Z</time>
      </trkpt>
      <trkpt lat="46.7196" lon="6.17159">
        <ele>1011</ele>
        <time>2019-05-20T10:45:09Z</time>
      </trkpt>
      <trkpt lat="46.71959" lon="6.17151">
        <ele>1009</ele>
        <time>2019-05-20T10:45:12Z</time>
      </trkpt>
      <trkpt lat="46.71962" lon="6.17159">
        <ele>1012</ele>
        <time>2019-05-20T10:45:14Z</time>
      </trkpt>
      <trkpt lat="46.71962" lon="6.17166">
        <ele>1014</ele>
        <time>2019-05-20T10:45:16Z</time>
      </trkpt>
      <trkpt lat="46.71958" lon="6.17171">
        <ele>1012</ele>
        <time>2019-05-20T10:45:24Z</time>
      </trkpt>
      <trkpt lat="46.71952" lon="6.17176">
        <ele>1014</ele>
        <time>2019-05-20T10:46:46Z</time>
      </trkpt>
      <trkpt lat="46.71955" lon="6.17175">
        <ele>1017</ele>
        <time>2019-05-20T10:48:10Z</time>
      </trkpt>
      <trkpt lat="46.71953" lon="6.17167">
        <ele>1018</ele>
        <time>2019-05-20T10:48:34Z</time>
      </trkpt>
      <trkpt lat="46.71952" lon="6.1716">
        <ele>1016</ele>
        <time>2019-05-20T10:48:38Z</time>
      </trkpt>
      <trkpt lat="46.71955" lon="6.1715">
        <ele>1013</ele>
        <time>2019-05-20T10:48:46Z</time>
      </trkpt>
      <trkpt lat="46.71958" lon="6.17144">
        <ele>1013</ele>
        <time>2019-05-20T10:48:50Z</time>
      </trkpt>
      <trkpt lat="46.71962" lon="6.17139">
        <ele>1012</ele>
        <time>2019-05-20T10:48:55Z</time>
      </trkpt>
      <trkpt lat="46.71966" lon="6.17133">
        <ele>1012</ele>
        <time>2019-05-20T10:49:00Z</time>
      </trkpt>
      <trkpt lat="46.71968" lon="6.17127">
        <ele>1012</ele>
        <time>2019-05-20T10:49:05Z</time>
      </trkpt>
      <trkpt lat="46.71976" lon="6.17098">
        <ele>1010</ele>
        <time>2019-05-20T10:49:22Z</time>
      </trkpt>
      <trkpt lat="46.71976" lon="6.17084">
        <ele>1009</ele>
        <time>2019-05-20T10:49:30Z</time>
      </trkpt>
      <trkpt lat="46.71974" lon="6.17078">
        <ele>1010</ele>
        <time>2019-05-20T10:49:35Z</time>
      </trkpt>
      <trkpt lat="46.71959" lon="6.1705">
        <ele>1013</ele>
        <time>2019-05-20T10:49:56Z</time>
      </trkpt>
      <trkpt lat="46.71956" lon="6.17043">
        <ele>1013</ele>
        <time>2019-05-20T10:50:01Z</time>
      </trkpt>
      <trkpt lat="46.71945" lon="6.17024">
        <ele>1013</ele>
        <time>2019-05-20T10:50:16Z</time>
      </trkpt>
      <trkpt lat="46.71943" lon="6.17016">
        <ele>1014</ele>
        <time>2019-05-20T10:50:21Z</time>
      </trkpt>
      <trkpt lat="46.71941" lon="6.1701">
        <ele>1014</ele>
        <time>2019-05-20T10:50:25Z</time>
      </trkpt>
      <trkpt lat="46.71939" lon="6.17004">
        <ele>1014</ele>
        <time>2019-05-20T10:50:29Z</time>
      </trkpt>
      <trkpt lat="46.71932" lon="6.16993">
        <ele>1015</ele>
        <time>2019-05-20T10:50:37Z</time>
      </trkpt>
      <trkpt lat="46.7193" lon="6.16987">
        <ele>1016</ele>
        <time>2019-05-20T10:50:41Z</time>
      </trkpt>
      <trkpt lat="46.71928" lon="6.1698">
        <ele>1016</ele>
        <time>2019-05-20T10:50:45Z</time>
      </trkpt>
      <trkpt lat="46.71925" lon="6.16975">
        <ele>1017</ele>
        <time>2019-05-20T10:50:49Z</time>
      </trkpt>
      <trkpt lat="46.71924" lon="6.16967">
        <ele>1017</ele>
        <time>2019-05-20T10:50:54Z</time>
      </trkpt>
      <trkpt lat="46.71925" lon="6.16957">
        <ele>1018</ele>
        <time>2019-05-20T10:51:01Z</time>
      </trkpt>
      <trkpt lat="46.71926" lon="6.16943">
        <ele>1018</ele>
        <time>2019-05-20T10:51:10Z</time>
      </trkpt>
      <trkpt lat="46.71929" lon="6.16922">
        <ele>1020</ele>
        <time>2019-05-20T10:51:23Z</time>
      </trkpt>
      <trkpt lat="46.71931" lon="6.16914">
        <ele>1020</ele>
        <time>2019-05-20T10:51:28Z</time>
      </trkpt>
      <trkpt lat="46.71934" lon="6.16908">
        <ele>1020</ele>
        <time>2019-05-20T10:51:32Z</time>
      </trkpt>
      <trkpt lat="46.71939" lon="6.16904">
        <ele>1020</ele>
        <time>2019-05-20T10:51:36Z</time>
      </trkpt>
      <trkpt lat="46.71943" lon="6.16899">
        <ele>1021</ele>
        <time>2019-05-20T10:51:40Z</time>
      </trkpt>
      <trkpt lat="46.71947" lon="6.16896">
        <ele>1021</ele>
        <time>2019-05-20T10:51:44Z</time>
      </trkpt>
      <trkpt lat="46.71982" lon="6.16883">
        <ele>1024</ele>
        <time>2019-05-20T10:52:18Z</time>
      </trkpt>
      <trkpt lat="46.71987" lon="6.16882">
        <ele>1025</ele>
        <time>2019-05-20T10:52:22Z</time>
      </trkpt>
      <trkpt lat="46.72003" lon="6.16873">
        <ele>1027</ele>
        <time>2019-05-20T10:52:39Z</time>
      </trkpt>
      <trkpt lat="46.72006" lon="6.16868">
        <ele>1027</ele>
        <time>2019-05-20T10:52:43Z</time>
      </trkpt>
      <trkpt lat="46.72018" lon="6.16843">
        <ele>1028</ele>
        <time>2019-05-20T10:53:02Z</time>
      </trkpt>
      <trkpt lat="46.72024" lon="6.16824">
        <ele>1029</ele>
        <time>2019-05-20T10:53:14Z</time>
      </trkpt>
      <trkpt lat="46.72027" lon="6.16818">
        <ele>1029</ele>
        <time>2019-05-20T10:53:18Z</time>
      </trkpt>
      <trkpt lat="46.72035" lon="6.16789">
        <ele>1029</ele>
        <time>2019-05-20T10:53:37Z</time>
      </trkpt>
      <trkpt lat="46.72039" lon="6.1678">
        <ele>1030</ele>
        <time>2019-05-20T10:53:45Z</time>
      </trkpt>
      <trkpt lat="46.72043" lon="6.16758">
        <ele>1030</ele>
        <time>2019-05-20T10:53:57Z</time>
      </trkpt>
      <trkpt lat="46.72043" lon="6.16751">
        <ele>1031</ele>
        <time>2019-05-20T10:54:01Z</time>
      </trkpt>
      <trkpt lat="46.72046" lon="6.16737">
        <ele>1030</ele>
        <time>2019-05-20T10:54:09Z</time>
      </trkpt>
      <trkpt lat="46.72052" lon="6.16716">
        <ele>1032</ele>
        <time>2019-05-20T10:54:21Z</time>
      </trkpt>
      <trkpt lat="46.72056" lon="6.16705">
        <ele>1034</ele>
        <time>2019-05-20T10:54:29Z</time>
      </trkpt>
      <trkpt lat="46.72065" lon="6.16689">
        <ele>1033</ele>
        <time>2019-05-20T10:54:41Z</time>
      </trkpt>
      <trkpt lat="46.72071" lon="6.16677">
        <ele>1034</ele>
        <time>2019-05-20T10:54:49Z</time>
      </trkpt>
      <trkpt lat="46.72074" lon="6.16671">
        <ele>1034</ele>
        <time>2019-05-20T10:54:54Z</time>
      </trkpt>
      <trkpt lat="46.72077" lon="6.16665">
        <ele>1034</ele>
        <time>2019-05-20T10:54:58Z</time>
      </trkpt>
      <trkpt lat="46.72081" lon="6.16659">
        <ele>1033</ele>
        <time>2019-05-20T10:55:03Z</time>
      </trkpt>
      <trkpt lat="46.72093" lon="6.16637">
        <ele>1032</ele>
        <time>2019-05-20T10:55:20Z</time>
      </trkpt>
      <trkpt lat="46.72097" lon="6.16632">
        <ele>1033</ele>
        <time>2019-05-20T10:55:25Z</time>
      </trkpt>
      <trkpt lat="46.72104" lon="6.16621">
        <ele>1032</ele>
        <time>2019-05-20T10:55:33Z</time>
      </trkpt>
      <trkpt lat="46.72112" lon="6.1661">
        <ele>1033</ele>
        <time>2019-05-20T10:55:43Z</time>
      </trkpt>
      <trkpt lat="46.7212" lon="6.166">
        <ele>1033</ele>
        <time>2019-05-20T10:55:53Z</time>
      </trkpt>
      <trkpt lat="46.72125" lon="6.16595">
        <ele>1033</ele>
        <time>2019-05-20T10:55:58Z</time>
      </trkpt>
      <trkpt lat="46.72129" lon="6.16593">
        <ele>1033</ele>
        <time>2019-05-20T10:56:03Z</time>
      </trkpt>
      <trkpt lat="46.72139" lon="6.16586">
        <ele>1034</ele>
        <time>2019-05-20T10:56:13Z</time>
      </trkpt>
      <trkpt lat="46.72147" lon="6.1658">
        <ele>1034</ele>
        <time>2019-05-20T10:56:21Z</time>
      </trkpt>
      <trkpt lat="46.72154" lon="6.16575">
        <ele>1035</ele>
        <time>2019-05-20T10:56:29Z</time>
      </trkpt>
      <trkpt lat="46.72169" lon="6.16572">
        <ele>1037</ele>
        <time>2019-05-20T10:56:44Z</time>
      </trkpt>
      <trkpt lat="46.72174" lon="6.16572">
        <ele>1037</ele>
        <time>2019-05-20T10:56:48Z</time>
      </trkpt>
      <trkpt lat="46.72179" lon="6.16571">
        <ele>1037</ele>
        <time>2019-05-20T10:56:53Z</time>
      </trkpt>
      <trkpt lat="46.72186" lon="6.16572">
        <ele>1038</ele>
        <time>2019-05-20T10:57:00Z</time>
      </trkpt>
      <trkpt lat="46.7221" lon="6.16584">
        <ele>1042</ele>
        <time>2019-05-20T10:57:28Z</time>
      </trkpt>
      <trkpt lat="46.72215" lon="6.16586">
        <ele>1042</ele>
        <time>2019-05-20T10:57:31Z</time>
      </trkpt>
      <trkpt lat="46.72232" lon="6.16591">
        <ele>1048</ele>
        <time>2019-05-20T10:57:52Z</time>
      </trkpt>
      <trkpt lat="46.72239" lon="6.16593">
        <ele>1048</ele>
        <time>2019-05-20T10:57:59Z</time>
      </trkpt>
      <trkpt lat="46.72246" lon="6.16592">
        <ele>1049</ele>
        <time>2019-05-20T10:58:07Z</time>
      </trkpt>
      <trkpt lat="46.72251" lon="6.16589">
        <ele>1049</ele>
        <time>2019-05-20T10:58:12Z</time>
      </trkpt>
      <trkpt lat="46.72256" lon="6.16588">
        <ele>1049</ele>
        <time>2019-05-20T10:58:17Z</time>
      </trkpt>
      <trkpt lat="46.72263" lon="6.16589">
        <ele>1051</ele>
        <time>2019-05-20T10:58:26Z</time>
      </trkpt>
      <trkpt lat="46.7227" lon="6.1659">
        <ele>1051</ele>
        <time>2019-05-20T10:58:38Z</time>
      </trkpt>
      <trkpt lat="46.72274" lon="6.1658">
        <ele>1052</ele>
        <time>2019-05-20T10:58:50Z</time>
      </trkpt>
      <trkpt lat="46.72268" lon="6.16568">
        <ele>1053</ele>
        <time>2019-05-20T10:59:00Z</time>
      </trkpt>
      <trkpt lat="46.72264" lon="6.16561">
        <ele>1053</ele>
        <time>2019-05-20T10:59:07Z</time>
      </trkpt>
      <trkpt lat="46.72262" lon="6.16549">
        <ele>1055</ele>
        <time>2019-05-20T10:59:17Z</time>
      </trkpt>
      <trkpt lat="46.72262" lon="6.16542">
        <ele>1056</ele>
        <time>2019-05-20T10:59:21Z</time>
      </trkpt>
      <trkpt lat="46.72264" lon="6.16535">
        <ele>1056</ele>
        <time>2019-05-20T10:59:27Z</time>
      </trkpt>
      <trkpt lat="46.72271" lon="6.1653">
        <ele>1058</ele>
        <time>2019-05-20T11:00:40Z</time>
      </trkpt>
      <trkpt lat="46.72277" lon="6.16527">
        <ele>1058</ele>
        <time>2019-05-20T11:00:45Z</time>
      </trkpt>
      <trkpt lat="46.72282" lon="6.16524">
        <ele>1058</ele>
        <time>2019-05-20T11:00:49Z</time>
      </trkpt>
      <trkpt lat="46.72294" lon="6.16522">
        <ele>1058</ele>
        <time>2019-05-20T11:01:03Z</time>
      </trkpt>
      <trkpt lat="46.723" lon="6.16519">
        <ele>1059</ele>
        <time>2019-05-20T11:01:07Z</time>
      </trkpt>
      <trkpt lat="46.72305" lon="6.16517">
        <ele>1059</ele>
        <time>2019-05-20T11:01:11Z</time>
      </trkpt>
      <trkpt lat="46.7231" lon="6.16514">
        <ele>1059</ele>
        <time>2019-05-20T11:01:15Z</time>
      </trkpt>
      <trkpt lat="46.72315" lon="6.16511">
        <ele>1059</ele>
        <time>2019-05-20T11:01:20Z</time>
      </trkpt>
      <trkpt lat="46.72319" lon="6.16506">
        <ele>1057</ele>
        <time>2019-05-20T11:01:24Z</time>
      </trkpt>
      <trkpt lat="46.72323" lon="6.16503">
        <ele>1057</ele>
        <time>2019-05-20T11:01:28Z</time>
      </trkpt>
      <trkpt lat="46.72328" lon="6.16501">
        <ele>1058</ele>
        <time>2019-05-20T11:01:33Z</time>
      </trkpt>
      <trkpt lat="46.72332" lon="6.16496">
        <ele>1058</ele>
        <time>2019-05-20T11:01:37Z</time>
      </trkpt>
      <trkpt lat="46.72336" lon="6.16493">
        <ele>1057</ele>
        <time>2019-05-20T11:01:41Z</time>
      </trkpt>
      <trkpt lat="46.7234" lon="6.16488">
        <ele>1057</ele>
        <time>2019-05-20T11:01:45Z</time>
      </trkpt>
      <trkpt lat="46.7235" lon="6.16472">
        <ele>1056</ele>
        <time>2019-05-20T11:01:58Z</time>
      </trkpt>
      <trkpt lat="46.72354" lon="6.16464">
        <ele>1056</ele>
        <time>2019-05-20T11:02:06Z</time>
      </trkpt>
      <trkpt lat="46.72362" lon="6.16449">
        <ele>1056</ele>
        <time>2019-05-20T11:02:19Z</time>
      </trkpt>
      <trkpt lat="46.72376" lon="6.16428">
        <ele>1056</ele>
        <time>2019-05-20T11:02:37Z</time>
      </trkpt>
      <trkpt lat="46.72381" lon="6.16425">
        <ele>1057</ele>
        <time>2019-05-20T11:02:42Z</time>
      </trkpt>
      <trkpt lat="46.7239" lon="6.16419">
        <ele>1056</ele>
        <time>2019-05-20T11:02:50Z</time>
      </trkpt>
      <trkpt lat="46.72395" lon="6.16418">
        <ele>1055</ele>
        <time>2019-05-20T11:02:55Z</time>
      </trkpt>
      <trkpt lat="46.72401" lon="6.16418">
        <ele>1056</ele>
        <time>2019-05-20T11:03:00Z</time>
      </trkpt>
      <trkpt lat="46.72421" lon="6.16416">
        <ele>1055</ele>
        <time>2019-05-20T11:03:17Z</time>
      </trkpt>
      <trkpt lat="46.72426" lon="6.16417">
        <ele>1055</ele>
        <time>2019-05-20T11:03:22Z</time>
      </trkpt>
      <trkpt lat="46.72431" lon="6.16419">
        <ele>1055</ele>
        <time>2019-05-20T11:03:26Z</time>
      </trkpt>
      <trkpt lat="46.72462" lon="6.16412">
        <ele>1059</ele>
        <time>2019-05-20T11:04:00Z</time>
      </trkpt>
      <trkpt lat="46.72473" lon="6.16413">
        <ele>1060</ele>
        <time>2019-05-20T11:04:10Z</time>
      </trkpt>
      <trkpt lat="46.72478" lon="6.16414">
        <ele>1060</ele>
        <time>2019-05-20T11:04:14Z</time>
      </trkpt>
      <trkpt lat="46.72482" lon="6.16416">
        <ele>1061</ele>
        <time>2019-05-20T11:04:18Z</time>
      </trkpt>
      <trkpt lat="46.72486" lon="6.1642">
        <ele>1061</ele>
        <time>2019-05-20T11:04:23Z</time>
      </trkpt>
      <trkpt lat="46.72495" lon="6.16425">
        <ele>1062</ele>
        <time>2019-05-20T11:04:32Z</time>
      </trkpt>
      <trkpt lat="46.725" lon="6.16428">
        <ele>1062</ele>
        <time>2019-05-20T11:04:37Z</time>
      </trkpt>
      <trkpt lat="46.72506" lon="6.16431">
        <ele>1061</ele>
        <time>2019-05-20T11:04:45Z</time>
      </trkpt>
      <trkpt lat="46.72517" lon="6.16438">
        <ele>1061</ele>
        <time>2019-05-20T11:04:57Z</time>
      </trkpt>
      <trkpt lat="46.72522" lon="6.16438">
        <ele>1062</ele>
        <time>2019-05-20T11:05:01Z</time>
      </trkpt>
      <trkpt lat="46.72528" lon="6.16443">
        <ele>1063</ele>
        <time>2019-05-20T11:05:11Z</time>
      </trkpt>
      <trkpt lat="46.72536" lon="6.16438">
        <ele>1063</ele>
        <time>2019-05-20T11:05:41Z</time>
      </trkpt>
      <trkpt lat="46.72546" lon="6.16429">
        <ele>1064</ele>
        <time>2019-05-20T11:05:59Z</time>
      </trkpt>
      <trkpt lat="46.72556" lon="6.16417">
        <ele>1068</ele>
        <time>2019-05-20T11:06:25Z</time>
      </trkpt>
      <trkpt lat="46.72568" lon="6.16397">
        <ele>1072</ele>
        <time>2019-05-20T11:06:52Z</time>
      </trkpt>
      <trkpt lat="46.72584" lon="6.16387">
        <ele>1075</ele>
        <time>2019-05-20T11:07:36Z</time>
      </trkpt>
      <trkpt lat="46.72602" lon="6.16389">
        <ele>1078</ele>
        <time>2019-05-20T11:07:53Z</time>
      </trkpt>
      <trkpt lat="46.72606" lon="6.16384">
        <ele>1078</ele>
        <time>2019-05-20T11:08:01Z</time>
      </trkpt>
      <trkpt lat="46.72611" lon="6.16381">
        <ele>1079</ele>
        <time>2019-05-20T11:09:19Z</time>
      </trkpt>
      <trkpt lat="46.72617" lon="6.1638">
        <ele>1077</ele>
        <time>2019-05-20T11:09:55Z</time>
      </trkpt>
      <trkpt lat="46.7262" lon="6.16393">
        <ele>1077</ele>
        <time>2019-05-20T11:10:11Z</time>
      </trkpt>
      <trkpt lat="46.72631" lon="6.1641">
        <ele>1080</ele>
        <time>2019-05-20T11:10:26Z</time>
      </trkpt>
      <trkpt lat="46.72635" lon="6.16415">
        <ele>1080</ele>
        <time>2019-05-20T11:10:30Z</time>
      </trkpt>
      <trkpt lat="46.72639" lon="6.1642">
        <ele>1079</ele>
        <time>2019-05-20T11:10:35Z</time>
      </trkpt>
      <trkpt lat="46.72645" lon="6.16428">
        <ele>1079</ele>
        <time>2019-05-20T11:10:43Z</time>
      </trkpt>
      <trkpt lat="46.72647" lon="6.16435">
        <ele>1079</ele>
        <time>2019-05-20T11:10:48Z</time>
      </trkpt>
      <trkpt lat="46.7265" lon="6.16441">
        <ele>1079</ele>
        <time>2019-05-20T11:10:52Z</time>
      </trkpt>
      <trkpt lat="46.72659" lon="6.16449">
        <ele>1080</ele>
        <time>2019-05-20T11:11:00Z</time>
      </trkpt>
      <trkpt lat="46.72666" lon="6.16459">
        <ele>1080</ele>
        <time>2019-05-20T11:11:08Z</time>
      </trkpt>
      <trkpt lat="46.72671" lon="6.16463">
        <ele>1079</ele>
        <time>2019-05-20T11:11:12Z</time>
      </trkpt>
      <trkpt lat="46.72674" lon="6.16468">
        <ele>1079</ele>
        <time>2019-05-20T11:11:16Z</time>
      </trkpt>
      <trkpt lat="46.72681" lon="6.16482">
        <ele>1078</ele>
        <time>2019-05-20T11:11:28Z</time>
      </trkpt>
      <trkpt lat="46.72685" lon="6.16486">
        <ele>1079</ele>
        <time>2019-05-20T11:11:32Z</time>
      </trkpt>
      <trkpt lat="46.7269" lon="6.16489">
        <ele>1079</ele>
        <time>2019-05-20T11:11:36Z</time>
      </trkpt>
      <trkpt lat="46.72703" lon="6.16507">
        <ele>1079</ele>
        <time>2019-05-20T11:11:52Z</time>
      </trkpt>
      <trkpt lat="46.72707" lon="6.16512">
        <ele>1078</ele>
        <time>2019-05-20T11:11:56Z</time>
      </trkpt>
      <trkpt lat="46.72711" lon="6.16517">
        <ele>1079</ele>
        <time>2019-05-20T11:12:00Z</time>
      </trkpt>
      <trkpt lat="46.72714" lon="6.16522">
        <ele>1078</ele>
        <time>2019-05-20T11:12:04Z</time>
      </trkpt>
      <trkpt lat="46.72718" lon="6.16526">
        <ele>1079</ele>
        <time>2019-05-20T11:12:08Z</time>
      </trkpt>
      <trkpt lat="46.72723" lon="6.16529">
        <ele>1079</ele>
        <time>2019-05-20T11:12:12Z</time>
      </trkpt>
      <trkpt lat="46.72726" lon="6.16534">
        <ele>1079</ele>
        <time>2019-05-20T11:12:17Z</time>
      </trkpt>
      <trkpt lat="46.72729" lon="6.16539">
        <ele>1080</ele>
        <time>2019-05-20T11:12:21Z</time>
      </trkpt>
      <trkpt lat="46.72734" lon="6.16543">
        <ele>1080</ele>
        <time>2019-05-20T11:12:26Z</time>
      </trkpt>
      <trkpt lat="46.72757" lon="6.16566">
        <ele>1081</ele>
        <time>2019-05-20T11:12:52Z</time>
      </trkpt>
      <trkpt lat="46.72774" lon="6.16581">
        <ele>1083</ele>
        <time>2019-05-20T11:13:10Z</time>
      </trkpt>
      <trkpt lat="46.72777" lon="6.16586">
        <ele>1084</ele>
        <time>2019-05-20T11:13:15Z</time>
      </trkpt>
      <trkpt lat="46.72787" lon="6.16593">
        <ele>1086</ele>
        <time>2019-05-20T11:13:26Z</time>
      </trkpt>
      <trkpt lat="46.72796" lon="6.16601">
        <ele>1086</ele>
        <time>2019-05-20T11:13:35Z</time>
      </trkpt>
      <trkpt lat="46.728" lon="6.16604">
        <ele>1087</ele>
        <time>2019-05-20T11:13:39Z</time>
      </trkpt>
      <trkpt lat="46.72822" lon="6.16616">
        <ele>1088</ele>
        <time>2019-05-20T11:13:59Z</time>
      </trkpt>
      <trkpt lat="46.72832" lon="6.16621">
        <ele>1091</ele>
        <time>2019-05-20T11:14:08Z</time>
      </trkpt>
      <trkpt lat="46.72835" lon="6.16628">
        <ele>1092</ele>
        <time>2019-05-20T11:14:16Z</time>
      </trkpt>
      <trkpt lat="46.72838" lon="6.16633">
        <ele>1092</ele>
        <time>2019-05-20T11:14:20Z</time>
      </trkpt>
      <trkpt lat="46.72842" lon="6.16641">
        <ele>1092</ele>
        <time>2019-05-20T11:14:29Z</time>
      </trkpt>
      <trkpt lat="46.72847" lon="6.16643">
        <ele>1091</ele>
        <time>2019-05-20T11:14:34Z</time>
      </trkpt>
      <trkpt lat="46.72852" lon="6.16644">
        <ele>1091</ele>
        <time>2019-05-20T11:14:38Z</time>
      </trkpt>
      <trkpt lat="46.72876" lon="6.16657">
        <ele>1091</ele>
        <time>2019-05-20T11:14:57Z</time>
      </trkpt>
      <trkpt lat="46.72881" lon="6.16659">
        <ele>1091</ele>
        <time>2019-05-20T11:15:01Z</time>
      </trkpt>
      <trkpt lat="46.72889" lon="6.16666">
        <ele>1091</ele>
        <time>2019-05-20T11:15:09Z</time>
      </trkpt>
      <trkpt lat="46.72894" lon="6.16673">
        <ele>1091</ele>
        <time>2019-05-20T11:15:16Z</time>
      </trkpt>
      <trkpt lat="46.72904" lon="6.16678">
        <ele>1092</ele>
        <time>2019-05-20T11:15:24Z</time>
      </trkpt>
      <trkpt lat="46.72924" lon="6.16675">
        <ele>1093</ele>
        <time>2019-05-20T11:15:43Z</time>
      </trkpt>
      <trkpt lat="46.7293" lon="6.16675">
        <ele>1092</ele>
        <time>2019-05-20T11:15:51Z</time>
      </trkpt>
      <trkpt lat="46.72932" lon="6.1668">
        <ele>1093</ele>
        <time>2019-05-20T11:15:57Z</time>
      </trkpt>
      <trkpt lat="46.72936" lon="6.16685">
        <ele>1093</ele>
        <time>2019-05-20T11:16:01Z</time>
      </trkpt>
      <trkpt lat="46.72948" lon="6.16686">
        <ele>1095</ele>
        <time>2019-05-20T11:16:13Z</time>
      </trkpt>
      <trkpt lat="46.72957" lon="6.16692">
        <ele>1096</ele>
        <time>2019-05-20T11:16:21Z</time>
      </trkpt>
      <trkpt lat="46.72975" lon="6.16696">
        <ele>1096</ele>
        <time>2019-05-20T11:16:39Z</time>
      </trkpt>
      <trkpt lat="46.7299" lon="6.16701">
        <ele>1098</ele>
        <time>2019-05-20T11:16:56Z</time>
      </trkpt>
      <trkpt lat="46.73028" lon="6.16702">
        <ele>1103</ele>
        <time>2019-05-20T11:17:32Z</time>
      </trkpt>
      <trkpt lat="46.73042" lon="6.16703">
        <ele>1105</ele>
        <time>2019-05-20T11:17:45Z</time>
      </trkpt>
      <trkpt lat="46.73054" lon="6.16709">
        <ele>1106</ele>
        <time>2019-05-20T11:18:00Z</time>
      </trkpt>
      <trkpt lat="46.73064" lon="6.16711">
        <ele>1107</ele>
        <time>2019-05-20T11:18:09Z</time>
      </trkpt>
      <trkpt lat="46.7308" lon="6.16719">
        <ele>1110</ele>
        <time>2019-05-20T11:18:29Z</time>
      </trkpt>
      <trkpt lat="46.73109" lon="6.16722">
        <ele>1115</ele>
        <time>2019-05-20T11:19:00Z</time>
      </trkpt>
      <trkpt lat="46.73116" lon="6.1672">
        <ele>1115</ele>
        <time>2019-05-20T11:19:10Z</time>
      </trkpt>
      <trkpt lat="46.73125" lon="6.16713">
        <ele>1115</ele>
        <time>2019-05-20T11:19:19Z</time>
      </trkpt>
      <trkpt lat="46.73128" lon="6.16708">
        <ele>1116</ele>
        <time>2019-05-20T11:19:24Z</time>
      </trkpt>
      <trkpt lat="46.73131" lon="6.16699">
        <ele>1116</ele>
        <time>2019-05-20T11:19:31Z</time>
      </trkpt>
      <trkpt lat="46.73132" lon="6.16693">
        <ele>1117</ele>
        <time>2019-05-20T11:19:58Z</time>
      </trkpt>
      <trkpt lat="46.73127" lon="6.16685">
        <ele>1118</ele>
        <time>2019-05-20T11:20:25Z</time>
      </trkpt>
      <trkpt lat="46.73134" lon="6.16686">
        <ele>1121</ele>
        <time>2019-05-20T11:22:45Z</time>
      </trkpt>
      <trkpt lat="46.73137" lon="6.1668">
        <ele>1122</ele>
        <time>2019-05-20T11:23:21Z</time>
      </trkpt>
      <trkpt lat="46.73136" lon="6.16672">
        <ele>1122</ele>
        <time>2019-05-20T11:23:38Z</time>
      </trkpt>
      <trkpt lat="46.73135" lon="6.16665">
        <ele>1121</ele>
        <time>2019-05-20T11:23:44Z</time>
      </trkpt>
      <trkpt lat="46.73134" lon="6.16658">
        <ele>1123</ele>
        <time>2019-05-20T11:23:49Z</time>
      </trkpt>
      <trkpt lat="46.73128" lon="6.16639">
        <ele>1124</ele>
        <time>2019-05-20T11:24:05Z</time>
      </trkpt>
      <trkpt lat="46.73121" lon="6.16629">
        <ele>1124</ele>
        <time>2019-05-20T11:24:14Z</time>
      </trkpt>
      <trkpt lat="46.73116" lon="6.16623">
        <ele>1122</ele>
        <time>2019-05-20T11:24:20Z</time>
      </trkpt>
      <trkpt lat="46.73111" lon="6.16615">
        <ele>1122</ele>
        <time>2019-05-20T11:24:28Z</time>
      </trkpt>
      <trkpt lat="46.73108" lon="6.16609">
        <ele>1123</ele>
        <time>2019-05-20T11:24:33Z</time>
      </trkpt>
      <trkpt lat="46.73102" lon="6.16595">
        <ele>1123</ele>
        <time>2019-05-20T11:24:45Z</time>
      </trkpt>
      <trkpt lat="46.73099" lon="6.16586">
        <ele>1123</ele>
        <time>2019-05-20T11:24:52Z</time>
      </trkpt>
      <trkpt lat="46.73096" lon="6.16581">
        <ele>1123</ele>
        <time>2019-05-20T11:24:56Z</time>
      </trkpt>
      <trkpt lat="46.73093" lon="6.16575">
        <ele>1123</ele>
        <time>2019-05-20T11:25:01Z</time>
      </trkpt>
      <trkpt lat="46.73088" lon="6.16563">
        <ele>1123</ele>
        <time>2019-05-20T11:25:08Z</time>
      </trkpt>
      <trkpt lat="46.73086" lon="6.16553">
        <ele>1125</ele>
        <time>2019-05-20T11:25:16Z</time>
      </trkpt>
      <trkpt lat="46.73078" lon="6.16534">
        <ele>1126</ele>
        <time>2019-05-20T11:25:30Z</time>
      </trkpt>
      <trkpt lat="46.73076" lon="6.16528">
        <ele>1126</ele>
        <time>2019-05-20T11:25:34Z</time>
      </trkpt>
      <trkpt lat="46.73075" lon="6.1652">
        <ele>1127</ele>
        <time>2019-05-20T11:25:39Z</time>
      </trkpt>
      <trkpt lat="46.73073" lon="6.16513">
        <ele>1125</ele>
        <time>2019-05-20T11:25:43Z</time>
      </trkpt>
      <trkpt lat="46.73072" lon="6.16507">
        <ele>1125</ele>
        <time>2019-05-20T11:25:48Z</time>
      </trkpt>
      <trkpt lat="46.73071" lon="6.16499">
        <ele>1126</ele>
        <time>2019-05-20T11:25:53Z</time>
      </trkpt>
      <trkpt lat="46.73069" lon="6.16493">
        <ele>1127</ele>
        <time>2019-05-20T11:25:58Z</time>
      </trkpt>
      <trkpt lat="46.73066" lon="6.16488">
        <ele>1127</ele>
        <time>2019-05-20T11:26:03Z</time>
      </trkpt>
      <trkpt lat="46.73064" lon="6.1648">
        <ele>1127</ele>
        <time>2019-05-20T11:26:08Z</time>
      </trkpt>
      <trkpt lat="46.73061" lon="6.16474">
        <ele>1128</ele>
        <time>2019-05-20T11:26:13Z</time>
      </trkpt>
      <trkpt lat="46.73058" lon="6.1646">
        <ele>1130</ele>
        <time>2019-05-20T11:26:22Z</time>
      </trkpt>
      <trkpt lat="46.73055" lon="6.16453">
        <ele>1130</ele>
        <time>2019-05-20T11:26:27Z</time>
      </trkpt>
      <trkpt lat="46.73048" lon="6.1644">
        <ele>1132</ele>
        <time>2019-05-20T11:26:38Z</time>
      </trkpt>
      <trkpt lat="46.73041" lon="6.1643">
        <ele>1133</ele>
        <time>2019-05-20T11:26:46Z</time>
      </trkpt>
      <trkpt lat="46.73037" lon="6.16424">
        <ele>1134</ele>
        <time>2019-05-20T11:26:51Z</time>
      </trkpt>
      <trkpt lat="46.73033" lon="6.16411">
        <ele>1134</ele>
        <time>2019-05-20T11:26:59Z</time>
      </trkpt>
      <trkpt lat="46.73031" lon="6.16405">
        <ele>1134</ele>
        <time>2019-05-20T11:27:04Z</time>
      </trkpt>
      <trkpt lat="46.73029" lon="6.16397">
        <ele>1134</ele>
        <time>2019-05-20T11:27:09Z</time>
      </trkpt>
      <trkpt lat="46.73028" lon="6.1639">
        <ele>1135</ele>
        <time>2019-05-20T11:27:14Z</time>
      </trkpt>
      <trkpt lat="46.73021" lon="6.16371">
        <ele>1135</ele>
        <time>2019-05-20T11:27:26Z</time>
      </trkpt>
      <trkpt lat="46.73016" lon="6.16366">
        <ele>1135</ele>
        <time>2019-05-20T11:27:30Z</time>
      </trkpt>
      <trkpt lat="46.73005" lon="6.16344">
        <ele>1135</ele>
        <time>2019-05-20T11:27:47Z</time>
      </trkpt>
      <trkpt lat="46.73003" lon="6.16336">
        <ele>1135</ele>
        <time>2019-05-20T11:27:52Z</time>
      </trkpt>
      <trkpt lat="46.72998" lon="6.16326">
        <ele>1137</ele>
        <time>2019-05-20T11:28:01Z</time>
      </trkpt>
      <trkpt lat="46.72998" lon="6.16314">
        <ele>1138</ele>
        <time>2019-05-20T11:28:09Z</time>
      </trkpt>
      <trkpt lat="46.72992" lon="6.16303">
        <ele>1138</ele>
        <time>2019-05-20T11:28:19Z</time>
      </trkpt>
      <trkpt lat="46.7299" lon="6.16286">
        <ele>1141</ele>
        <time>2019-05-20T11:28:32Z</time>
      </trkpt>
      <trkpt lat="46.72989" lon="6.16258">
        <ele>1141</ele>
        <time>2019-05-20T11:28:48Z</time>
      </trkpt>
      <trkpt lat="46.7299" lon="6.16244">
        <ele>1142</ele>
        <time>2019-05-20T11:28:56Z</time>
      </trkpt>
      <trkpt lat="46.72991" lon="6.16237">
        <ele>1142</ele>
        <time>2019-05-20T11:29:01Z</time>
      </trkpt>
      <trkpt lat="46.7299" lon="6.16231">
        <ele>1143</ele>
        <time>2019-05-20T11:29:05Z</time>
      </trkpt>
      <trkpt lat="46.7299" lon="6.16224">
        <ele>1143</ele>
        <time>2019-05-20T11:29:09Z</time>
      </trkpt>
      <trkpt lat="46.72988" lon="6.16217">
        <ele>1143</ele>
        <time>2019-05-20T11:29:13Z</time>
      </trkpt>
      <trkpt lat="46.72988" lon="6.1621">
        <ele>1144</ele>
        <time>2019-05-20T11:29:18Z</time>
      </trkpt>
      <trkpt lat="46.72986" lon="6.16203">
        <ele>1143</ele>
        <time>2019-05-20T11:29:23Z</time>
      </trkpt>
      <trkpt lat="46.72975" lon="6.1617">
        <ele>1143</ele>
        <time>2019-05-20T11:29:43Z</time>
      </trkpt>
      <trkpt lat="46.72973" lon="6.16163">
        <ele>1146</ele>
        <time>2019-05-20T11:29:48Z</time>
      </trkpt>
      <trkpt lat="46.72971" lon="6.16155">
        <ele>1146</ele>
        <time>2019-05-20T11:29:53Z</time>
      </trkpt>
      <trkpt lat="46.72967" lon="6.16147">
        <ele>1146</ele>
        <time>2019-05-20T11:30:00Z</time>
      </trkpt>
      <trkpt lat="46.72966" lon="6.1614">
        <ele>1146</ele>
        <time>2019-05-20T11:30:04Z</time>
      </trkpt>
      <trkpt lat="46.72962" lon="6.16128">
        <ele>1147</ele>
        <time>2019-05-20T11:30:12Z</time>
      </trkpt>
      <trkpt lat="46.72958" lon="6.16105">
        <ele>1147</ele>
        <time>2019-05-20T11:30:25Z</time>
      </trkpt>
      <trkpt lat="46.72956" lon="6.16098">
        <ele>1147</ele>
        <time>2019-05-20T11:30:29Z</time>
      </trkpt>
      <trkpt lat="46.72948" lon="6.16073">
        <ele>1147</ele>
        <time>2019-05-20T11:30:46Z</time>
      </trkpt>
      <trkpt lat="46.72946" lon="6.16066">
        <ele>1147</ele>
        <time>2019-05-20T11:30:51Z</time>
      </trkpt>
      <trkpt lat="46.72941" lon="6.16042">
        <ele>1149</ele>
        <time>2019-05-20T11:31:06Z</time>
      </trkpt>
      <trkpt lat="46.72938" lon="6.16033">
        <ele>1149</ele>
        <time>2019-05-20T11:31:13Z</time>
      </trkpt>
      <trkpt lat="46.72936" lon="6.16026">
        <ele>1150</ele>
        <time>2019-05-20T11:31:18Z</time>
      </trkpt>
      <trkpt lat="46.72936" lon="6.16018">
        <ele>1151</ele>
        <time>2019-05-20T11:31:22Z</time>
      </trkpt>
      <trkpt lat="46.7293" lon="6.16007">
        <ele>1153</ele>
        <time>2019-05-20T11:31:32Z</time>
      </trkpt>
      <trkpt lat="46.72929" lon="6.16">
        <ele>1153</ele>
        <time>2019-05-20T11:31:37Z</time>
      </trkpt>
      <trkpt lat="46.72928" lon="6.15993">
        <ele>1153</ele>
        <time>2019-05-20T11:31:41Z</time>
      </trkpt>
      <trkpt lat="46.72925" lon="6.15987">
        <ele>1153</ele>
        <time>2019-05-20T11:31:45Z</time>
      </trkpt>
      <trkpt lat="46.72924" lon="6.15979">
        <ele>1154</ele>
        <time>2019-05-20T11:31:50Z</time>
      </trkpt>
      <trkpt lat="46.72923" lon="6.15972">
        <ele>1153</ele>
        <time>2019-05-20T11:31:55Z</time>
      </trkpt>
      <trkpt lat="46.72924" lon="6.15961">
        <ele>1154</ele>
        <time>2019-05-20T11:32:03Z</time>
      </trkpt>
      <trkpt lat="46.72924" lon="6.15953">
        <ele>1154</ele>
        <time>2019-05-20T11:32:08Z</time>
      </trkpt>
      <trkpt lat="46.72923" lon="6.15946">
        <ele>1153</ele>
        <time>2019-05-20T11:32:12Z</time>
      </trkpt>
      <trkpt lat="46.72923" lon="6.15939">
        <ele>1154</ele>
        <time>2019-05-20T11:32:16Z</time>
      </trkpt>
      <trkpt lat="46.72919" lon="6.15935">
        <ele>1155</ele>
        <time>2019-05-20T11:32:19Z</time>
      </trkpt>
      <trkpt lat="46.72917" lon="6.15907">
        <ele>1157</ele>
        <time>2019-05-20T11:32:39Z</time>
      </trkpt>
      <trkpt lat="46.7291" lon="6.15897">
        <ele>1159</ele>
        <time>2019-05-20T11:33:37Z</time>
      </trkpt>
      <trkpt lat="46.72906" lon="6.15891">
        <ele>1160</ele>
        <time>2019-05-20T11:34:55Z</time>
      </trkpt>
      <trkpt lat="46.72902" lon="6.15885">
        <ele>1161</ele>
        <time>2019-05-20T11:35:44Z</time>
      </trkpt>
      <trkpt lat="46.72897" lon="6.15879">
        <ele>1161</ele>
        <time>2019-05-20T11:36:14Z</time>
      </trkpt>
      <trkpt lat="46.72897" lon="6.15872">
        <ele>1161</ele>
        <time>2019-05-20T11:36:20Z</time>
      </trkpt>
      <trkpt lat="46.72896" lon="6.15865">
        <ele>1162</ele>
        <time>2019-05-20T11:36:26Z</time>
      </trkpt>
      <trkpt lat="46.72893" lon="6.15859">
        <ele>1162</ele>
        <time>2019-05-20T11:36:30Z</time>
      </trkpt>
      <trkpt lat="46.72893" lon="6.15851">
        <ele>1163</ele>
        <time>2019-05-20T11:36:35Z</time>
      </trkpt>
      <trkpt lat="46.7289" lon="6.15836">
        <ele>1164</ele>
        <time>2019-05-20T11:36:46Z</time>
      </trkpt>
      <trkpt lat="46.72892" lon="6.15827">
        <ele>1164</ele>
        <time>2019-05-20T11:36:52Z</time>
      </trkpt>
      <trkpt lat="46.72887" lon="6.15814">
        <ele>1164</ele>
        <time>2019-05-20T11:37:00Z</time>
      </trkpt>
      <trkpt lat="46.72887" lon="6.15807">
        <ele>1163</ele>
        <time>2019-05-20T11:37:04Z</time>
      </trkpt>
      <trkpt lat="46.72887" lon="6.15799">
        <ele>1163</ele>
        <time>2019-05-20T11:37:09Z</time>
      </trkpt>
      <trkpt lat="46.7289" lon="6.15791">
        <ele>1163</ele>
        <time>2019-05-20T11:37:15Z</time>
      </trkpt>
      <trkpt lat="46.72894" lon="6.15785">
        <ele>1163</ele>
        <time>2019-05-20T11:37:19Z</time>
      </trkpt>
      <trkpt lat="46.72897" lon="6.15778">
        <ele>1162</ele>
        <time>2019-05-20T11:37:23Z</time>
      </trkpt>
      <trkpt lat="46.72898" lon="6.15771">
        <ele>1162</ele>
        <time>2019-05-20T11:37:27Z</time>
      </trkpt>
      <trkpt lat="46.72893" lon="6.15744">
        <ele>1164</ele>
        <time>2019-05-20T11:37:42Z</time>
      </trkpt>
      <trkpt lat="46.72898" lon="6.15732">
        <ele>1165</ele>
        <time>2019-05-20T11:37:49Z</time>
      </trkpt>
      <trkpt lat="46.72899" lon="6.15719">
        <ele>1165</ele>
        <time>2019-05-20T11:37:58Z</time>
      </trkpt>
      <trkpt lat="46.72898" lon="6.15704">
        <ele>1165</ele>
        <time>2019-05-20T11:38:07Z</time>
      </trkpt>
      <trkpt lat="46.72895" lon="6.15692">
        <ele>1166</ele>
        <time>2019-05-20T11:38:14Z</time>
      </trkpt>
      <trkpt lat="46.72894" lon="6.15677">
        <ele>1167</ele>
        <time>2019-05-20T11:38:22Z</time>
      </trkpt>
      <trkpt lat="46.72895" lon="6.15663">
        <ele>1166</ele>
        <time>2019-05-20T11:38:29Z</time>
      </trkpt>
      <trkpt lat="46.72897" lon="6.1565">
        <ele>1167</ele>
        <time>2019-05-20T11:38:38Z</time>
      </trkpt>
      <trkpt lat="46.72903" lon="6.15637">
        <ele>1168</ele>
        <time>2019-05-20T11:38:50Z</time>
      </trkpt>
      <trkpt lat="46.72908" lon="6.15623">
        <ele>1169</ele>
        <time>2019-05-20T11:39:03Z</time>
      </trkpt>
      <trkpt lat="46.72915" lon="6.15602">
        <ele>1168</ele>
        <time>2019-05-20T11:39:17Z</time>
      </trkpt>
      <trkpt lat="46.72938" lon="6.15559">
        <ele>1165</ele>
        <time>2019-05-20T11:39:48Z</time>
      </trkpt>
      <trkpt lat="46.72943" lon="6.15546">
        <ele>1165</ele>
        <time>2019-05-20T11:39:55Z</time>
      </trkpt>
      <trkpt lat="46.72941" lon="6.15532">
        <ele>1166</ele>
        <time>2019-05-20T11:40:02Z</time>
      </trkpt>
      <trkpt lat="46.72939" lon="6.15519">
        <ele>1165</ele>
        <time>2019-05-20T11:40:09Z</time>
      </trkpt>
      <trkpt lat="46.72943" lon="6.15505">
        <ele>1164</ele>
        <time>2019-05-20T11:40:17Z</time>
      </trkpt>
      <trkpt lat="46.72945" lon="6.15478">
        <ele>1165</ele>
        <time>2019-05-20T11:40:33Z</time>
      </trkpt>
      <trkpt lat="46.72949" lon="6.15464">
        <ele>1164</ele>
        <time>2019-05-20T11:40:42Z</time>
      </trkpt>
      <trkpt lat="46.72948" lon="6.15451">
        <ele>1164</ele>
        <time>2019-05-20T11:40:51Z</time>
      </trkpt>
      <trkpt lat="46.72956" lon="6.15428">
        <ele>1164</ele>
        <time>2019-05-20T11:41:08Z</time>
      </trkpt>
      <trkpt lat="46.72963" lon="6.15419">
        <ele>1164</ele>
        <time>2019-05-20T11:41:14Z</time>
      </trkpt>
      <trkpt lat="46.72976" lon="6.154">
        <ele>1163</ele>
        <time>2019-05-20T11:41:29Z</time>
      </trkpt>
      <trkpt lat="46.72985" lon="6.15398">
        <ele>1163</ele>
        <time>2019-05-20T11:41:44Z</time>
      </trkpt>
      <trkpt lat="46.73" lon="6.15404">
        <ele>1162</ele>
        <time>2019-05-20T11:41:58Z</time>
      </trkpt>
      <trkpt lat="46.73009" lon="6.15394">
        <ele>1163</ele>
        <time>2019-05-20T11:42:26Z</time>
      </trkpt>
      <trkpt lat="46.73007" lon="6.15376">
        <ele>1163</ele>
        <time>2019-05-20T11:42:43Z</time>
      </trkpt>
      <trkpt lat="46.73" lon="6.15361">
        <ele>1162</ele>
        <time>2019-05-20T11:43:02Z</time>
      </trkpt>
      <trkpt lat="46.72995" lon="6.15347">
        <ele>1162</ele>
        <time>2019-05-20T11:43:20Z</time>
      </trkpt>
      <trkpt lat="46.72992" lon="6.15334">
        <ele>1161</ele>
        <time>2019-05-20T11:43:38Z</time>
      </trkpt>
      <trkpt lat="46.72987" lon="6.15317">
        <ele>1158</ele>
        <time>2019-05-20T11:43:54Z</time>
      </trkpt>
      <trkpt lat="46.72981" lon="6.15305">
        <ele>1157</ele>
        <time>2019-05-20T11:44:04Z</time>
      </trkpt>
      <trkpt lat="46.72986" lon="6.15293">
        <ele>1156</ele>
        <time>2019-05-20T11:44:16Z</time>
      </trkpt>
      <trkpt lat="46.72989" lon="6.15279">
        <ele>1153</ele>
        <time>2019-05-20T11:45:58Z</time>
      </trkpt>
      <trkpt lat="46.72997" lon="6.1526">
        <ele>1149</ele>
        <time>2019-05-20T11:46:14Z</time>
      </trkpt>
      <trkpt lat="46.73001" lon="6.1525">
        <ele>1149</ele>
        <time>2019-05-20T11:46:23Z</time>
      </trkpt>
      <trkpt lat="46.72997" lon="6.15238">
        <ele>1149</ele>
        <time>2019-05-20T11:46:33Z</time>
      </trkpt>
      <trkpt lat="46.72977" lon="6.15202">
        <ele>1143</ele>
        <time>2019-05-20T11:47:00Z</time>
      </trkpt>
      <trkpt lat="46.72976" lon="6.15195">
        <ele>1142</ele>
        <time>2019-05-20T11:47:05Z</time>
      </trkpt>
      <trkpt lat="46.72957" lon="6.15181">
        <ele>1138</ele>
        <time>2019-05-20T11:47:29Z</time>
      </trkpt>
      <trkpt lat="46.72959" lon="6.15165">
        <ele>1141</ele>
        <time>2019-05-20T11:47:51Z</time>
      </trkpt>
      <trkpt lat="46.72938" lon="6.15135">
        <ele>1130</ele>
        <time>2019-05-20T11:48:36Z</time>
      </trkpt>
      <trkpt lat="46.72944" lon="6.15149">
        <ele>1130</ele>
        <time>2019-05-20T11:49:14Z</time>
      </trkpt>
      <trkpt lat="46.72953" lon="6.15155">
        <ele>1130</ele>
        <time>2019-05-20T11:49:24Z</time>
      </trkpt>
      <trkpt lat="46.72957" lon="6.15173">
        <ele>1132</ele>
        <time>2019-05-20T11:49:41Z</time>
      </trkpt>
      <trkpt lat="46.72949" lon="6.15186">
        <ele>1134</ele>
        <time>2019-05-20T11:49:58Z</time>
      </trkpt>
      <trkpt lat="46.72941" lon="6.15179">
        <ele>1136</ele>
        <time>2019-05-20T11:50:12Z</time>
      </trkpt>
      <trkpt lat="46.72926" lon="6.15148">
        <ele>1137</ele>
        <time>2019-05-20T11:50:45Z</time>
      </trkpt>
      <trkpt lat="46.72919" lon="6.15138">
        <ele>1137</ele>
        <time>2019-05-20T11:50:57Z</time>
      </trkpt>
      <trkpt lat="46.72909" lon="6.15137">
        <ele>1136</ele>
        <time>2019-05-20T11:51:07Z</time>
      </trkpt>
      <trkpt lat="46.72898" lon="6.15134">
        <ele>1137</ele>
        <time>2019-05-20T11:51:13Z</time>
      </trkpt>
      <trkpt lat="46.72901" lon="6.1513">
        <ele>1141</ele>
        <time>2019-05-20T11:52:51Z</time>
      </trkpt>
      <trkpt lat="46.72912" lon="6.15144">
        <ele>1141</ele>
        <time>2019-05-20T11:53:06Z</time>
      </trkpt>
      <trkpt lat="46.72922" lon="6.1515">
        <ele>1140</ele>
        <time>2019-05-20T11:53:10Z</time>
      </trkpt>
      <trkpt lat="46.72929" lon="6.15158">
        <ele>1140</ele>
        <time>2019-05-20T11:53:18Z</time>
      </trkpt>
      <trkpt lat="46.72934" lon="6.15174">
        <ele>1139</ele>
        <time>2019-05-20T11:53:29Z</time>
      </trkpt>
      <trkpt lat="46.72938" lon="6.15189">
        <ele>1139</ele>
        <time>2019-05-20T11:53:40Z</time>
      </trkpt>
      <trkpt lat="46.72949" lon="6.15189">
        <ele>1139</ele>
        <time>2019-05-20T11:53:51Z</time>
      </trkpt>
      <trkpt lat="46.72956" lon="6.15181">
        <ele>1139</ele>
        <time>2019-05-20T11:53:59Z</time>
      </trkpt>
      <trkpt lat="46.72959" lon="6.15169">
        <ele>1140</ele>
        <time>2019-05-20T11:54:08Z</time>
      </trkpt>
      <trkpt lat="46.72961" lon="6.15154">
        <ele>1141</ele>
        <time>2019-05-20T11:54:15Z</time>
      </trkpt>
      <trkpt lat="46.72953" lon="6.15134">
        <ele>1143</ele>
        <time>2019-05-20T11:54:33Z</time>
      </trkpt>
      <trkpt lat="46.72952" lon="6.1512">
        <ele>1143</ele>
        <time>2019-05-20T11:54:41Z</time>
      </trkpt>
      <trkpt lat="46.72946" lon="6.15109">
        <ele>1143</ele>
        <time>2019-05-20T11:54:48Z</time>
      </trkpt>
      <trkpt lat="46.72937" lon="6.15101">
        <ele>1143</ele>
        <time>2019-05-20T11:54:53Z</time>
      </trkpt>
      <trkpt lat="46.72928" lon="6.15093">
        <ele>1142</ele>
        <time>2019-05-20T11:55:00Z</time>
      </trkpt>
      <trkpt lat="46.72929" lon="6.15076">
        <ele>1141</ele>
        <time>2019-05-20T11:55:17Z</time>
      </trkpt>
      <trkpt lat="46.72918" lon="6.1507">
        <ele>1141</ele>
        <time>2019-05-20T11:55:22Z</time>
      </trkpt>
      <trkpt lat="46.72918" lon="6.15053">
        <ele>1141</ele>
        <time>2019-05-20T11:55:33Z</time>
      </trkpt>
      <trkpt lat="46.72917" lon="6.15034">
        <ele>1140</ele>
        <time>2019-05-20T11:55:47Z</time>
      </trkpt>
      <trkpt lat="46.72915" lon="6.1502">
        <ele>1140</ele>
        <time>2019-05-20T11:55:56Z</time>
      </trkpt>
      <trkpt lat="46.72908" lon="6.15011">
        <ele>1139</ele>
        <time>2019-05-20T11:56:01Z</time>
      </trkpt>
      <trkpt lat="46.72908" lon="6.14996">
        <ele>1135</ele>
        <time>2019-05-20T11:56:09Z</time>
      </trkpt>
      <trkpt lat="46.72908" lon="6.14983">
        <ele>1131</ele>
        <time>2019-05-20T11:56:17Z</time>
      </trkpt>
      <trkpt lat="46.72907" lon="6.14963">
        <ele>1129</ele>
        <time>2019-05-20T11:56:31Z</time>
      </trkpt>
      <trkpt lat="46.72902" lon="6.14951">
        <ele>1129</ele>
        <time>2019-05-20T11:56:41Z</time>
      </trkpt>
      <trkpt lat="46.72913" lon="6.14946">
        <ele>1127</ele>
        <time>2019-05-20T11:56:57Z</time>
      </trkpt>
      <trkpt lat="46.72925" lon="6.14937">
        <ele>1123</ele>
        <time>2019-05-20T11:57:19Z</time>
      </trkpt>
      <trkpt lat="46.72929" lon="6.14924">
        <ele>1124</ele>
        <time>2019-05-20T11:57:27Z</time>
      </trkpt>
      <trkpt lat="46.72937" lon="6.14914">
        <ele>1123</ele>
        <time>2019-05-20T11:57:34Z</time>
      </trkpt>
      <trkpt lat="46.72944" lon="6.14904">
        <ele>1121</ele>
        <time>2019-05-20T11:57:45Z</time>
      </trkpt>
      <trkpt lat="46.72953" lon="6.14897">
        <ele>1121</ele>
        <time>2019-05-20T11:57:54Z</time>
      </trkpt>
      <trkpt lat="46.72963" lon="6.14894">
        <ele>1121</ele>
        <time>2019-05-20T11:58:02Z</time>
      </trkpt>
      <trkpt lat="46.72981" lon="6.14887">
        <ele>1121</ele>
        <time>2019-05-20T11:58:12Z</time>
      </trkpt>
      <trkpt lat="46.73" lon="6.1488">
        <ele>1114</ele>
        <time>2019-05-20T11:58:30Z</time>
      </trkpt>
      <trkpt lat="46.73009" lon="6.14872">
        <ele>1113</ele>
        <time>2019-05-20T11:58:37Z</time>
      </trkpt>
      <trkpt lat="46.73013" lon="6.14861">
        <ele>1110</ele>
        <time>2019-05-20T11:59:01Z</time>
      </trkpt>
      <trkpt lat="46.73009" lon="6.14849">
        <ele>1114</ele>
        <time>2019-05-20T11:59:54Z</time>
      </trkpt>
      <trkpt lat="46.73013" lon="6.14833">
        <ele>1113</ele>
        <time>2019-05-20T12:00:12Z</time>
      </trkpt>
      <trkpt lat="46.73012" lon="6.14799">
        <ele>1108</ele>
        <time>2019-05-20T12:00:43Z</time>
      </trkpt>
      <trkpt lat="46.73017" lon="6.14787">
        <ele>1109</ele>
        <time>2019-05-20T12:00:52Z</time>
      </trkpt>
      <trkpt lat="46.73026" lon="6.14782">
        <ele>1109</ele>
        <time>2019-05-20T12:00:56Z</time>
      </trkpt>
      <trkpt lat="46.73022" lon="6.14766">
        <ele>1109</ele>
        <time>2019-05-20T12:01:06Z</time>
      </trkpt>
      <trkpt lat="46.73016" lon="6.14756">
        <ele>1109</ele>
        <time>2019-05-20T12:01:11Z</time>
      </trkpt>
      <trkpt lat="46.73025" lon="6.14747">
        <ele>1108</ele>
        <time>2019-05-20T12:01:19Z</time>
      </trkpt>
      <trkpt lat="46.73029" lon="6.14737">
        <ele>1108</ele>
        <time>2019-05-20T12:01:27Z</time>
      </trkpt>
      <trkpt lat="46.73027" lon="6.14723">
        <ele>1107</ele>
        <time>2019-05-20T12:01:34Z</time>
      </trkpt>
      <trkpt lat="46.73028" lon="6.1471">
        <ele>1107</ele>
        <time>2019-05-20T12:01:41Z</time>
      </trkpt>
      <trkpt lat="46.73033" lon="6.14698">
        <ele>1108</ele>
        <time>2019-05-20T12:01:49Z</time>
      </trkpt>
      <trkpt lat="46.73042" lon="6.14692">
        <ele>1107</ele>
        <time>2019-05-20T12:01:55Z</time>
      </trkpt>
      <trkpt lat="46.73049" lon="6.14684">
        <ele>1107</ele>
        <time>2019-05-20T12:02:02Z</time>
      </trkpt>
      <trkpt lat="46.73056" lon="6.14674">
        <ele>1107</ele>
        <time>2019-05-20T12:02:09Z</time>
      </trkpt>
      <trkpt lat="46.7306" lon="6.14663">
        <ele>1108</ele>
        <time>2019-05-20T12:02:17Z</time>
      </trkpt>
      <trkpt lat="46.73063" lon="6.14649">
        <ele>1108</ele>
        <time>2019-05-20T12:02:24Z</time>
      </trkpt>
      <trkpt lat="46.73065" lon="6.14621">
        <ele>1105</ele>
        <time>2019-05-20T12:02:37Z</time>
      </trkpt>
      <trkpt lat="46.73061" lon="6.14607">
        <ele>1104</ele>
        <time>2019-05-20T12:02:43Z</time>
      </trkpt>
      <trkpt lat="46.73059" lon="6.14592">
        <ele>1104</ele>
        <time>2019-05-20T12:02:49Z</time>
      </trkpt>
      <trkpt lat="46.73052" lon="6.14582">
        <ele>1106</ele>
        <time>2019-05-20T12:02:57Z</time>
      </trkpt>
      <trkpt lat="46.73048" lon="6.1457">
        <ele>1105</ele>
        <time>2019-05-20T12:03:04Z</time>
      </trkpt>
      <trkpt lat="46.7304" lon="6.14561">
        <ele>1105</ele>
        <time>2019-05-20T12:03:12Z</time>
      </trkpt>
      <trkpt lat="46.73033" lon="6.14552">
        <ele>1106</ele>
        <time>2019-05-20T12:03:21Z</time>
      </trkpt>
      <trkpt lat="46.73009" lon="6.14538">
        <ele>1104</ele>
        <time>2019-05-20T12:03:40Z</time>
      </trkpt>
      <trkpt lat="46.72999" lon="6.14535">
        <ele>1104</ele>
        <time>2019-05-20T12:03:48Z</time>
      </trkpt>
      <trkpt lat="46.72984" lon="6.14536">
        <ele>1106</ele>
        <time>2019-05-20T12:04:01Z</time>
      </trkpt>
      <trkpt lat="46.72973" lon="6.14526">
        <ele>1106</ele>
        <time>2019-05-20T12:04:18Z</time>
      </trkpt>
      <trkpt lat="46.72966" lon="6.14535">
        <ele>1110</ele>
        <time>2019-05-20T12:05:43Z</time>
      </trkpt>
      <trkpt lat="46.72957" lon="6.14541">
        <ele>1110</ele>
        <time>2019-05-20T12:05:57Z</time>
      </trkpt>
      <trkpt lat="46.72946" lon="6.14553">
        <ele>1112</ele>
        <time>2019-05-20T12:06:13Z</time>
      </trkpt>
      <trkpt lat="46.72935" lon="6.14555">
        <ele>1112</ele>
        <time>2019-05-20T12:06:18Z</time>
      </trkpt>
      <trkpt lat="46.72924" lon="6.14558">
        <ele>1112</ele>
        <time>2019-05-20T12:06:27Z</time>
      </trkpt>
      <trkpt lat="46.72913" lon="6.14559">
        <ele>1112</ele>
        <time>2019-05-20T12:06:38Z</time>
      </trkpt>
      <trkpt lat="46.72897" lon="6.1456">
        <ele>1112</ele>
        <time>2019-05-20T12:07:08Z</time>
      </trkpt>
      <trkpt lat="46.72888" lon="6.14557">
        <ele>1113</ele>
        <time>2019-05-20T12:07:14Z</time>
      </trkpt>
      <trkpt lat="46.72878" lon="6.14556">
        <ele>1112</ele>
        <time>2019-05-20T12:07:18Z</time>
      </trkpt>
      <trkpt lat="46.72869" lon="6.14557">
        <ele>1112</ele>
        <time>2019-05-20T12:07:22Z</time>
      </trkpt>
      <trkpt lat="46.7286" lon="6.14557">
        <ele>1113</ele>
        <time>2019-05-20T12:07:28Z</time>
      </trkpt>
      <trkpt lat="46.72832" lon="6.14567">
        <ele>1113</ele>
        <time>2019-05-20T12:07:52Z</time>
      </trkpt>
      <trkpt lat="46.72818" lon="6.14566">
        <ele>1116</ele>
        <time>2019-05-20T12:08:08Z</time>
      </trkpt>
      <trkpt lat="46.72803" lon="6.14565">
        <ele>1117</ele>
        <time>2019-05-20T12:08:22Z</time>
      </trkpt>
      <trkpt lat="46.72794" lon="6.14567">
        <ele>1119</ele>
        <time>2019-05-20T12:08:28Z</time>
      </trkpt>
      <trkpt lat="46.72785" lon="6.14572">
        <ele>1119</ele>
        <time>2019-05-20T12:08:36Z</time>
      </trkpt>
      <trkpt lat="46.72771" lon="6.14582">
        <ele>1121</ele>
        <time>2019-05-20T12:08:51Z</time>
      </trkpt>
      <trkpt lat="46.72773" lon="6.1455">
        <ele>1127</ele>
        <time>2019-05-20T12:09:41Z</time>
      </trkpt>
      <trkpt lat="46.72779" lon="6.14529">
        <ele>1128</ele>
        <time>2019-05-20T12:09:58Z</time>
      </trkpt>
      <trkpt lat="46.72779" lon="6.14512">
        <ele>1130</ele>
        <time>2019-05-20T12:10:16Z</time>
      </trkpt>
      <trkpt lat="46.72786" lon="6.145">
        <ele>1131</ele>
        <time>2019-05-20T12:10:30Z</time>
      </trkpt>
      <trkpt lat="46.72779" lon="6.14492">
        <ele>1131</ele>
        <time>2019-05-20T12:10:40Z</time>
      </trkpt>
      <trkpt lat="46.72777" lon="6.14476">
        <ele>1133</ele>
        <time>2019-05-20T12:11:00Z</time>
      </trkpt>
      <trkpt lat="46.72784" lon="6.14465">
        <ele>1135</ele>
        <time>2019-05-20T12:11:18Z</time>
      </trkpt>
      <trkpt lat="46.7278" lon="6.14451">
        <ele>1136</ele>
        <time>2019-05-20T12:11:42Z</time>
      </trkpt>
      <trkpt lat="46.7277" lon="6.14446">
        <ele>1138</ele>
        <time>2019-05-20T12:11:58Z</time>
      </trkpt>
      <trkpt lat="46.72768" lon="6.14431">
        <ele>1140</ele>
        <time>2019-05-20T12:12:16Z</time>
      </trkpt>
      <trkpt lat="46.72763" lon="6.14416">
        <ele>1142</ele>
        <time>2019-05-20T12:12:34Z</time>
      </trkpt>
      <trkpt lat="46.72754" lon="6.14405">
        <ele>1145</ele>
        <time>2019-05-20T12:12:53Z</time>
      </trkpt>
      <trkpt lat="46.72748" lon="6.14394">
        <ele>1146</ele>
        <time>2019-05-20T12:13:03Z</time>
      </trkpt>
      <trkpt lat="46.72742" lon="6.14384">
        <ele>1148</ele>
        <time>2019-05-20T12:13:18Z</time>
      </trkpt>
      <trkpt lat="46.72753" lon="6.14381">
        <ele>1152</ele>
        <time>2019-05-20T12:13:48Z</time>
      </trkpt>
      <trkpt lat="46.72743" lon="6.1438">
        <ele>1155</ele>
        <time>2019-05-20T12:14:34Z</time>
      </trkpt>
      <trkpt lat="46.72743" lon="6.14367">
        <ele>1159</ele>
        <time>2019-05-20T12:15:44Z</time>
      </trkpt>
      <trkpt lat="46.7274" lon="6.14378">
        <ele>1158</ele>
        <time>2019-05-20T12:18:04Z</time>
      </trkpt>
      <trkpt lat="46.72733" lon="6.1436">
        <ele>1158</ele>
        <time>2019-05-20T12:18:34Z</time>
      </trkpt>
      <trkpt lat="46.72725" lon="6.14341">
        <ele>1159</ele>
        <time>2019-05-20T12:18:51Z</time>
      </trkpt>
      <trkpt lat="46.7273" lon="6.14319">
        <ele>1158</ele>
        <time>2019-05-20T12:19:23Z</time>
      </trkpt>
      <trkpt lat="46.72719" lon="6.14304">
        <ele>1161</ele>
        <time>2019-05-20T12:19:41Z</time>
      </trkpt>
      <trkpt lat="46.72711" lon="6.14298">
        <ele>1162</ele>
        <time>2019-05-20T12:19:47Z</time>
      </trkpt>
      <trkpt lat="46.72708" lon="6.14284">
        <ele>1163</ele>
        <time>2019-05-20T12:19:56Z</time>
      </trkpt>
      <trkpt lat="46.727" lon="6.14267">
        <ele>1164</ele>
        <time>2019-05-20T12:20:14Z</time>
      </trkpt>
      <trkpt lat="46.72703" lon="6.14254">
        <ele>1163</ele>
        <time>2019-05-20T12:20:25Z</time>
      </trkpt>
      <trkpt lat="46.72692" lon="6.14251">
        <ele>1164</ele>
        <time>2019-05-20T12:20:34Z</time>
      </trkpt>
      <trkpt lat="46.72676" lon="6.14235">
        <ele>1165</ele>
        <time>2019-05-20T12:20:49Z</time>
      </trkpt>
      <trkpt lat="46.72671" lon="6.1421">
        <ele>1166</ele>
        <time>2019-05-20T12:21:12Z</time>
      </trkpt>
      <trkpt lat="46.72664" lon="6.14196">
        <ele>1166</ele>
        <time>2019-05-20T12:21:23Z</time>
      </trkpt>
      <trkpt lat="46.72662" lon="6.14185">
        <ele>1167</ele>
        <time>2019-05-20T12:21:35Z</time>
      </trkpt>
      <trkpt lat="46.72654" lon="6.14164">
        <ele>1170</ele>
        <time>2019-05-20T12:22:03Z</time>
      </trkpt>
      <trkpt lat="46.72661" lon="6.14145">
        <ele>1172</ele>
        <time>2019-05-20T12:22:26Z</time>
      </trkpt>
      <trkpt lat="46.72649" lon="6.14116">
        <ele>1178</ele>
        <time>2019-05-20T12:23:20Z</time>
      </trkpt>
      <trkpt lat="46.72645" lon="6.14089">
        <ele>1180</ele>
        <time>2019-05-20T12:23:48Z</time>
      </trkpt>
      <trkpt lat="46.7265" lon="6.14075">
        <ele>1181</ele>
        <time>2019-05-20T12:24:07Z</time>
      </trkpt>
      <trkpt lat="46.72645" lon="6.14059">
        <ele>1184</ele>
        <time>2019-05-20T12:24:25Z</time>
      </trkpt>
      <trkpt lat="46.72636" lon="6.14025">
        <ele>1188</ele>
        <time>2019-05-20T12:25:13Z</time>
      </trkpt>
      <trkpt lat="46.7263" lon="6.14013">
        <ele>1187</ele>
        <time>2019-05-20T12:25:29Z</time>
      </trkpt>
      <trkpt lat="46.72621" lon="6.13997">
        <ele>1190</ele>
        <time>2019-05-20T12:26:01Z</time>
      </trkpt>
      <trkpt lat="46.72612" lon="6.1399">
        <ele>1193</ele>
        <time>2019-05-20T12:26:14Z</time>
      </trkpt>
      <trkpt lat="46.72607" lon="6.13977">
        <ele>1197</ele>
        <time>2019-05-20T12:26:32Z</time>
      </trkpt>
      <trkpt lat="46.72594" lon="6.13965">
        <ele>1200</ele>
        <time>2019-05-20T12:26:51Z</time>
      </trkpt>
      <trkpt lat="46.72585" lon="6.13954">
        <ele>1203</ele>
        <time>2019-05-20T12:27:15Z</time>
      </trkpt>
      <trkpt lat="46.72564" lon="6.13943">
        <ele>1207</ele>
        <time>2019-05-20T12:27:51Z</time>
      </trkpt>
      <trkpt lat="46.72562" lon="6.13929">
        <ele>1208</ele>
        <time>2019-05-20T12:28:06Z</time>
      </trkpt>
      <trkpt lat="46.72553" lon="6.13924">
        <ele>1211</ele>
        <time>2019-05-20T12:28:20Z</time>
      </trkpt>
      <trkpt lat="46.72543" lon="6.13922">
        <ele>1223</ele>
        <time>2019-05-20T12:29:19Z</time>
      </trkpt>
      <trkpt lat="46.72527" lon="6.13917">
        <ele>1226</ele>
        <time>2019-05-20T12:30:32Z</time>
      </trkpt>
      <trkpt lat="46.72518" lon="6.1392">
        <ele>1229</ele>
        <time>2019-05-20T12:31:22Z</time>
      </trkpt>
      <trkpt lat="46.72512" lon="6.1392">
        <ele>1234</ele>
        <time>2019-05-20T12:36:51Z</time>
      </trkpt>
      <trkpt lat="46.72506" lon="6.13918">
        <ele>1231</ele>
        <time>2019-05-20T12:38:21Z</time>
      </trkpt>
      <trkpt lat="46.72506" lon="6.13911">
        <ele>1233</ele>
        <time>2019-05-20T12:40:33Z</time>
      </trkpt>
      <trkpt lat="46.72514" lon="6.13929">
        <ele>1231</ele>
        <time>2019-05-20T12:41:33Z</time>
      </trkpt>
      <trkpt lat="46.72515" lon="6.13922">
        <ele>1227</ele>
        <time>2019-05-20T12:41:44Z</time>
      </trkpt>
      <trkpt lat="46.72511" lon="6.13917">
        <ele>1226</ele>
        <time>2019-05-20T12:41:45Z</time>
      </trkpt>
      <trkpt lat="46.72509" lon="6.13922">
        <ele>1230</ele>
        <time>2019-05-20T12:46:50Z</time>
      </trkpt>
      <trkpt lat="46.72506" lon="6.13915">
        <ele>1230</ele>
        <time>2019-05-20T12:47:02Z</time>
      </trkpt>
      <trkpt lat="46.72505" lon="6.13898">
        <ele>1231</ele>
        <time>2019-05-20T12:47:20Z</time>
      </trkpt>
      <trkpt lat="46.7249" lon="6.13888">
        <ele>1227</ele>
        <time>2019-05-20T12:47:43Z</time>
      </trkpt>
      <trkpt lat="46.72482" lon="6.13877">
        <ele>1226</ele>
        <time>2019-05-20T12:48:03Z</time>
      </trkpt>
      <trkpt lat="46.72474" lon="6.13865">
        <ele>1227</ele>
        <time>2019-05-20T12:48:18Z</time>
      </trkpt>
      <trkpt lat="46.72455" lon="6.13872">
        <ele>1222</ele>
        <time>2019-05-20T12:49:12Z</time>
      </trkpt>
      <trkpt lat="46.72445" lon="6.13875">
        <ele>1223</ele>
        <time>2019-05-20T12:49:42Z</time>
      </trkpt>
      <trkpt lat="46.72436" lon="6.13884">
        <ele>1223</ele>
        <time>2019-05-20T12:50:06Z</time>
      </trkpt>
      <trkpt lat="46.7243" lon="6.13894">
        <ele>1220</ele>
        <time>2019-05-20T12:50:24Z</time>
      </trkpt>
      <trkpt lat="46.72426" lon="6.13912">
        <ele>1217</ele>
        <time>2019-05-20T12:50:39Z</time>
      </trkpt>
      <trkpt lat="46.72428" lon="6.13926">
        <ele>1215</ele>
        <time>2019-05-20T12:50:53Z</time>
      </trkpt>
      <trkpt lat="46.72427" lon="6.13943">
        <ele>1215</ele>
        <time>2019-05-20T12:51:07Z</time>
      </trkpt>
      <trkpt lat="46.72422" lon="6.13954">
        <ele>1214</ele>
        <time>2019-05-20T12:51:25Z</time>
      </trkpt>
      <trkpt lat="46.72406" lon="6.13966">
        <ele>1213</ele>
        <time>2019-05-20T12:51:44Z</time>
      </trkpt>
      <trkpt lat="46.72398" lon="6.13973">
        <ele>1213</ele>
        <time>2019-05-20T12:51:51Z</time>
      </trkpt>
      <trkpt lat="46.72389" lon="6.13976">
        <ele>1213</ele>
        <time>2019-05-20T12:51:58Z</time>
      </trkpt>
      <trkpt lat="46.7238" lon="6.13977">
        <ele>1213</ele>
        <time>2019-05-20T12:52:06Z</time>
      </trkpt>
      <trkpt lat="46.72373" lon="6.13986">
        <ele>1213</ele>
        <time>2019-05-20T12:52:15Z</time>
      </trkpt>
      <trkpt lat="46.72364" lon="6.1399">
        <ele>1212</ele>
        <time>2019-05-20T12:52:35Z</time>
      </trkpt>
      <trkpt lat="46.72355" lon="6.13999">
        <ele>1211</ele>
        <time>2019-05-20T12:52:48Z</time>
      </trkpt>
      <trkpt lat="46.72343" lon="6.14006">
        <ele>1201</ele>
        <time>2019-05-20T12:56:49Z</time>
      </trkpt>
      <trkpt lat="46.72332" lon="6.14017">
        <ele>1198</ele>
        <time>2019-05-20T12:57:02Z</time>
      </trkpt>
      <trkpt lat="46.72327" lon="6.14027">
        <ele>1199</ele>
        <time>2019-05-20T12:57:12Z</time>
      </trkpt>
      <trkpt lat="46.72321" lon="6.14044">
        <ele>1198</ele>
        <time>2019-05-20T12:57:24Z</time>
      </trkpt>
      <trkpt lat="46.72314" lon="6.14054">
        <ele>1196</ele>
        <time>2019-05-20T12:57:32Z</time>
      </trkpt>
      <trkpt lat="46.72311" lon="6.14066">
        <ele>1196</ele>
        <time>2019-05-20T12:57:42Z</time>
      </trkpt>
      <trkpt lat="46.72305" lon="6.14079">
        <ele>1195</ele>
        <time>2019-05-20T12:57:51Z</time>
      </trkpt>
      <trkpt lat="46.72301" lon="6.14091">
        <ele>1195</ele>
        <time>2019-05-20T12:57:59Z</time>
      </trkpt>
      <trkpt lat="46.72294" lon="6.14105">
        <ele>1194</ele>
        <time>2019-05-20T12:58:12Z</time>
      </trkpt>
      <trkpt lat="46.72277" lon="6.1415">
        <ele>1190</ele>
        <time>2019-05-20T12:58:45Z</time>
      </trkpt>
      <trkpt lat="46.72279" lon="6.14166">
        <ele>1190</ele>
        <time>2019-05-20T12:58:57Z</time>
      </trkpt>
      <trkpt lat="46.72281" lon="6.14179">
        <ele>1189</ele>
        <time>2019-05-20T12:59:05Z</time>
      </trkpt>
      <trkpt lat="46.72284" lon="6.14206">
        <ele>1191</ele>
        <time>2019-05-20T12:59:24Z</time>
      </trkpt>
      <trkpt lat="46.72282" lon="6.14219">
        <ele>1190</ele>
        <time>2019-05-20T12:59:31Z</time>
      </trkpt>
      <trkpt lat="46.72273" lon="6.14239">
        <ele>1186</ele>
        <time>2019-05-20T12:59:51Z</time>
      </trkpt>
      <trkpt lat="46.72263" lon="6.14239">
        <ele>1184</ele>
        <time>2019-05-20T12:59:58Z</time>
      </trkpt>
      <trkpt lat="46.72255" lon="6.14253">
        <ele>1186</ele>
        <time>2019-05-20T13:00:11Z</time>
      </trkpt>
      <trkpt lat="46.72249" lon="6.14266">
        <ele>1182</ele>
        <time>2019-05-20T13:00:28Z</time>
      </trkpt>
      <trkpt lat="46.7224" lon="6.14272">
        <ele>1181</ele>
        <time>2019-05-20T13:00:38Z</time>
      </trkpt>
      <trkpt lat="46.72234" lon="6.14285">
        <ele>1175</ele>
        <time>2019-05-20T13:01:05Z</time>
      </trkpt>
      <trkpt lat="46.72208" lon="6.14304">
        <ele>1169</ele>
        <time>2019-05-20T13:01:44Z</time>
      </trkpt>
      <trkpt lat="46.72189" lon="6.14303">
        <ele>1167</ele>
        <time>2019-05-20T13:02:01Z</time>
      </trkpt>
      <trkpt lat="46.7218" lon="6.14311">
        <ele>1165</ele>
        <time>2019-05-20T13:02:09Z</time>
      </trkpt>
      <trkpt lat="46.7217" lon="6.14311">
        <ele>1164</ele>
        <time>2019-05-20T13:02:15Z</time>
      </trkpt>
      <trkpt lat="46.72134" lon="6.14333">
        <ele>1157</ele>
        <time>2019-05-20T13:02:48Z</time>
      </trkpt>
      <trkpt lat="46.72124" lon="6.14336">
        <ele>1155</ele>
        <time>2019-05-20T13:02:55Z</time>
      </trkpt>
      <trkpt lat="46.72116" lon="6.14342">
        <ele>1155</ele>
        <time>2019-05-20T13:03:01Z</time>
      </trkpt>
      <trkpt lat="46.72107" lon="6.14347">
        <ele>1153</ele>
        <time>2019-05-20T13:03:11Z</time>
      </trkpt>
      <trkpt lat="46.72093" lon="6.14365">
        <ele>1150</ele>
        <time>2019-05-20T13:03:29Z</time>
      </trkpt>
      <trkpt lat="46.7206" lon="6.14385">
        <ele>1145</ele>
        <time>2019-05-20T13:04:03Z</time>
      </trkpt>
      <trkpt lat="46.72051" lon="6.14395">
        <ele>1143</ele>
        <time>2019-05-20T13:04:09Z</time>
      </trkpt>
      <trkpt lat="46.72046" lon="6.14404">
        <ele>1143</ele>
        <time>2019-05-20T13:04:16Z</time>
      </trkpt>
      <trkpt lat="46.72044" lon="6.1442">
        <ele>1143</ele>
        <time>2019-05-20T13:04:23Z</time>
      </trkpt>
      <trkpt lat="46.72045" lon="6.14432">
        <ele>1140</ele>
        <time>2019-05-20T13:04:30Z</time>
      </trkpt>
      <trkpt lat="46.72059" lon="6.14461">
        <ele>1138</ele>
        <time>2019-05-20T13:04:56Z</time>
      </trkpt>
      <trkpt lat="46.72062" lon="6.14475">
        <ele>1137</ele>
        <time>2019-05-20T13:05:04Z</time>
      </trkpt>
      <trkpt lat="46.72062" lon="6.14488">
        <ele>1136</ele>
        <time>2019-05-20T13:05:12Z</time>
      </trkpt>
      <trkpt lat="46.72061" lon="6.14506">
        <ele>1134</ele>
        <time>2019-05-20T13:05:22Z</time>
      </trkpt>
      <trkpt lat="46.72058" lon="6.14518">
        <ele>1133</ele>
        <time>2019-05-20T13:05:45Z</time>
      </trkpt>
      <trkpt lat="46.72043" lon="6.14533">
        <ele>1132</ele>
        <time>2019-05-20T13:06:03Z</time>
      </trkpt>
      <trkpt lat="46.72028" lon="6.14539">
        <ele>1129</ele>
        <time>2019-05-20T13:06:20Z</time>
      </trkpt>
      <trkpt lat="46.72021" lon="6.14546">
        <ele>1127</ele>
        <time>2019-05-20T13:06:34Z</time>
      </trkpt>
      <trkpt lat="46.72013" lon="6.14556">
        <ele>1123</ele>
        <time>2019-05-20T13:06:44Z</time>
      </trkpt>
      <trkpt lat="46.72003" lon="6.1455">
        <ele>1124</ele>
        <time>2019-05-20T13:06:54Z</time>
      </trkpt>
      <trkpt lat="46.72005" lon="6.14567">
        <ele>1124</ele>
        <time>2019-05-20T13:07:17Z</time>
      </trkpt>
      <trkpt lat="46.72006" lon="6.14581">
        <ele>1121</ele>
        <time>2019-05-20T13:07:25Z</time>
      </trkpt>
      <trkpt lat="46.71991" lon="6.14587">
        <ele>1118</ele>
        <time>2019-05-20T13:07:51Z</time>
      </trkpt>
      <trkpt lat="46.71985" lon="6.14595">
        <ele>1118</ele>
        <time>2019-05-20T13:07:55Z</time>
      </trkpt>
      <trkpt lat="46.71977" lon="6.14619">
        <ele>1115</ele>
        <time>2019-05-20T13:08:19Z</time>
      </trkpt>
      <trkpt lat="46.7197" lon="6.14624">
        <ele>1114</ele>
        <time>2019-05-20T13:08:37Z</time>
      </trkpt>
      <trkpt lat="46.71969" lon="6.14611">
        <ele>1114</ele>
        <time>2019-05-20T13:08:45Z</time>
      </trkpt>
      <trkpt lat="46.71934" lon="6.14646">
        <ele>1099</ele>
        <time>2019-05-20T13:09:28Z</time>
      </trkpt>
      <trkpt lat="46.71926" lon="6.14664">
        <ele>1095</ele>
        <time>2019-05-20T13:10:08Z</time>
      </trkpt>
      <trkpt lat="46.71919" lon="6.14676">
        <ele>1095</ele>
        <time>2019-05-20T13:10:17Z</time>
      </trkpt>
      <trkpt lat="46.71913" lon="6.14687">
        <ele>1094</ele>
        <time>2019-05-20T13:10:24Z</time>
      </trkpt>
      <trkpt lat="46.71907" lon="6.14698">
        <ele>1094</ele>
        <time>2019-05-20T13:10:30Z</time>
      </trkpt>
      <trkpt lat="46.71898" lon="6.14704">
        <ele>1094</ele>
        <time>2019-05-20T13:10:37Z</time>
      </trkpt>
      <trkpt lat="46.71892" lon="6.14715">
        <ele>1094</ele>
        <time>2019-05-20T13:10:45Z</time>
      </trkpt>
      <trkpt lat="46.71888" lon="6.14727">
        <ele>1093</ele>
        <time>2019-05-20T13:10:54Z</time>
      </trkpt>
      <trkpt lat="46.71887" lon="6.1474">
        <ele>1093</ele>
        <time>2019-05-20T13:11:02Z</time>
      </trkpt>
      <trkpt lat="46.71878" lon="6.14749">
        <ele>1092</ele>
        <time>2019-05-20T13:11:10Z</time>
      </trkpt>
      <trkpt lat="46.71874" lon="6.14761">
        <ele>1091</ele>
        <time>2019-05-20T13:11:18Z</time>
      </trkpt>
      <trkpt lat="46.71871" lon="6.14773">
        <ele>1090</ele>
        <time>2019-05-20T13:11:25Z</time>
      </trkpt>
      <trkpt lat="46.71872" lon="6.1479">
        <ele>1089</ele>
        <time>2019-05-20T13:11:34Z</time>
      </trkpt>
      <trkpt lat="46.71876" lon="6.14802">
        <ele>1090</ele>
        <time>2019-05-20T13:11:42Z</time>
      </trkpt>
      <trkpt lat="46.71878" lon="6.14815">
        <ele>1091</ele>
        <time>2019-05-20T13:11:50Z</time>
      </trkpt>
      <trkpt lat="46.71877" lon="6.1483">
        <ele>1091</ele>
        <time>2019-05-20T13:11:56Z</time>
      </trkpt>
      <trkpt lat="46.71884" lon="6.14841">
        <ele>1090</ele>
        <time>2019-05-20T13:12:03Z</time>
      </trkpt>
      <trkpt lat="46.71892" lon="6.14845">
        <ele>1090</ele>
        <time>2019-05-20T13:12:10Z</time>
      </trkpt>
      <trkpt lat="46.71901" lon="6.14885">
        <ele>1090</ele>
        <time>2019-05-20T13:12:32Z</time>
      </trkpt>
      <trkpt lat="46.71907" lon="6.14895">
        <ele>1091</ele>
        <time>2019-05-20T13:12:39Z</time>
      </trkpt>
      <trkpt lat="46.71912" lon="6.14908">
        <ele>1090</ele>
        <time>2019-05-20T13:12:50Z</time>
      </trkpt>
      <trkpt lat="46.71926" lon="6.14924">
        <ele>1089</ele>
        <time>2019-05-20T13:13:07Z</time>
      </trkpt>
      <trkpt lat="46.71935" lon="6.1493">
        <ele>1089</ele>
        <time>2019-05-20T13:13:14Z</time>
      </trkpt>
      <trkpt lat="46.71943" lon="6.14938">
        <ele>1089</ele>
        <time>2019-05-20T13:13:21Z</time>
      </trkpt>
      <trkpt lat="46.71948" lon="6.1495">
        <ele>1089</ele>
        <time>2019-05-20T13:13:28Z</time>
      </trkpt>
      <trkpt lat="46.7195" lon="6.14963">
        <ele>1089</ele>
        <time>2019-05-20T13:13:35Z</time>
      </trkpt>
      <trkpt lat="46.71964" lon="6.14984">
        <ele>1091</ele>
        <time>2019-05-20T13:13:52Z</time>
      </trkpt>
      <trkpt lat="46.71972" lon="6.14992">
        <ele>1091</ele>
        <time>2019-05-20T13:14:01Z</time>
      </trkpt>
      <trkpt lat="46.7198" lon="6.15">
        <ele>1091</ele>
        <time>2019-05-20T13:14:08Z</time>
      </trkpt>
      <trkpt lat="46.71988" lon="6.15005">
        <ele>1090</ele>
        <time>2019-05-20T13:14:15Z</time>
      </trkpt>
      <trkpt lat="46.71996" lon="6.15015">
        <ele>1091</ele>
        <time>2019-05-20T13:14:23Z</time>
      </trkpt>
      <trkpt lat="46.72005" lon="6.15022">
        <ele>1091</ele>
        <time>2019-05-20T13:14:28Z</time>
      </trkpt>
      <trkpt lat="46.72016" lon="6.15024">
        <ele>1091</ele>
        <time>2019-05-20T13:14:38Z</time>
      </trkpt>
      <trkpt lat="46.72023" lon="6.15057">
        <ele>1091</ele>
        <time>2019-05-20T13:14:59Z</time>
      </trkpt>
      <trkpt lat="46.72027" lon="6.1507">
        <ele>1090</ele>
        <time>2019-05-20T13:15:07Z</time>
      </trkpt>
      <trkpt lat="46.72021" lon="6.15088">
        <ele>1090</ele>
        <time>2019-05-20T13:15:22Z</time>
      </trkpt>
      <trkpt lat="46.72014" lon="6.151">
        <ele>1090</ele>
        <time>2019-05-20T13:15:28Z</time>
      </trkpt>
      <trkpt lat="46.72008" lon="6.1511">
        <ele>1090</ele>
        <time>2019-05-20T13:15:35Z</time>
      </trkpt>
      <trkpt lat="46.72001" lon="6.15118">
        <ele>1090</ele>
        <time>2019-05-20T13:15:41Z</time>
      </trkpt>
      <trkpt lat="46.71994" lon="6.15128">
        <ele>1090</ele>
        <time>2019-05-20T13:15:48Z</time>
      </trkpt>
      <trkpt lat="46.71979" lon="6.15136">
        <ele>1089</ele>
        <time>2019-05-20T13:16:09Z</time>
      </trkpt>
      <trkpt lat="46.71974" lon="6.15148">
        <ele>1089</ele>
        <time>2019-05-20T13:16:16Z</time>
      </trkpt>
      <trkpt lat="46.71965" lon="6.15154">
        <ele>1089</ele>
        <time>2019-05-20T13:16:21Z</time>
      </trkpt>
      <trkpt lat="46.71957" lon="6.15159">
        <ele>1089</ele>
        <time>2019-05-20T13:16:28Z</time>
      </trkpt>
      <trkpt lat="46.71945" lon="6.15167">
        <ele>1088</ele>
        <time>2019-05-20T13:16:38Z</time>
      </trkpt>
      <trkpt lat="46.71937" lon="6.15186">
        <ele>1088</ele>
        <time>2019-05-20T13:16:54Z</time>
      </trkpt>
      <trkpt lat="46.71939" lon="6.15198">
        <ele>1087</ele>
        <time>2019-05-20T13:17:02Z</time>
      </trkpt>
      <trkpt lat="46.71936" lon="6.15213">
        <ele>1088</ele>
        <time>2019-05-20T13:17:08Z</time>
      </trkpt>
      <trkpt lat="46.71938" lon="6.15225">
        <ele>1089</ele>
        <time>2019-05-20T13:17:14Z</time>
      </trkpt>
      <trkpt lat="46.71934" lon="6.1524">
        <ele>1088</ele>
        <time>2019-05-20T13:17:24Z</time>
      </trkpt>
      <trkpt lat="46.7193" lon="6.15251">
        <ele>1087</ele>
        <time>2019-05-20T13:17:36Z</time>
      </trkpt>
      <trkpt lat="46.71922" lon="6.15261">
        <ele>1086</ele>
        <time>2019-05-20T13:17:46Z</time>
      </trkpt>
      <trkpt lat="46.71915" lon="6.15269">
        <ele>1086</ele>
        <time>2019-05-20T13:17:52Z</time>
      </trkpt>
      <trkpt lat="46.71906" lon="6.15275">
        <ele>1087</ele>
        <time>2019-05-20T13:17:57Z</time>
      </trkpt>
      <trkpt lat="46.71901" lon="6.15285">
        <ele>1087</ele>
        <time>2019-05-20T13:18:05Z</time>
      </trkpt>
      <trkpt lat="46.71895" lon="6.15299">
        <ele>1085</ele>
        <time>2019-05-20T13:18:11Z</time>
      </trkpt>
      <trkpt lat="46.71889" lon="6.15339">
        <ele>1086</ele>
        <time>2019-05-20T13:18:28Z</time>
      </trkpt>
      <trkpt lat="46.71891" lon="6.15352">
        <ele>1085</ele>
        <time>2019-05-20T13:18:35Z</time>
      </trkpt>
      <trkpt lat="46.71899" lon="6.1536">
        <ele>1083</ele>
        <time>2019-05-20T13:18:42Z</time>
      </trkpt>
      <trkpt lat="46.71897" lon="6.15375">
        <ele>1084</ele>
        <time>2019-05-20T13:18:49Z</time>
      </trkpt>
      <trkpt lat="46.71902" lon="6.15391">
        <ele>1084</ele>
        <time>2019-05-20T13:18:59Z</time>
      </trkpt>
      <trkpt lat="46.719" lon="6.15407">
        <ele>1081</ele>
        <time>2019-05-20T13:19:09Z</time>
      </trkpt>
      <trkpt lat="46.71888" lon="6.15423">
        <ele>1079</ele>
        <time>2019-05-20T13:19:15Z</time>
      </trkpt>
      <trkpt lat="46.7188" lon="6.15427">
        <ele>1077</ele>
        <time>2019-05-20T13:19:20Z</time>
      </trkpt>
      <trkpt lat="46.71871" lon="6.15429">
        <ele>1077</ele>
        <time>2019-05-20T13:19:27Z</time>
      </trkpt>
      <trkpt lat="46.7186" lon="6.15424">
        <ele>1075</ele>
        <time>2019-05-20T13:19:39Z</time>
      </trkpt>
      <trkpt lat="46.71863" lon="6.15449">
        <ele>1068</ele>
        <time>2019-05-20T13:20:20Z</time>
      </trkpt>
      <trkpt lat="46.71864" lon="6.15465">
        <ele>1070</ele>
        <time>2019-05-20T13:20:26Z</time>
      </trkpt>
      <trkpt lat="46.71875" lon="6.15463">
        <ele>1072</ele>
        <time>2019-05-20T13:20:39Z</time>
      </trkpt>
      <trkpt lat="46.71868" lon="6.15462">
        <ele>1077</ele>
        <time>2019-05-20T13:21:49Z</time>
      </trkpt>
      <trkpt lat="46.71874" lon="6.1548">
        <ele>1075</ele>
        <time>2019-05-20T13:22:02Z</time>
      </trkpt>
      <trkpt lat="46.7188" lon="6.1549">
        <ele>1075</ele>
        <time>2019-05-20T13:22:11Z</time>
      </trkpt>
      <trkpt lat="46.71891" lon="6.15497">
        <ele>1074</ele>
        <time>2019-05-20T13:22:21Z</time>
      </trkpt>
      <trkpt lat="46.71899" lon="6.15507">
        <ele>1075</ele>
        <time>2019-05-20T13:22:29Z</time>
      </trkpt>
      <trkpt lat="46.7191" lon="6.15512">
        <ele>1073</ele>
        <time>2019-05-20T13:22:41Z</time>
      </trkpt>
      <trkpt lat="46.71916" lon="6.15525">
        <ele>1072</ele>
        <time>2019-05-20T13:22:49Z</time>
      </trkpt>
      <trkpt lat="46.71917" lon="6.15539">
        <ele>1072</ele>
        <time>2019-05-20T13:22:54Z</time>
      </trkpt>
      <trkpt lat="46.71915" lon="6.15562">
        <ele>1072</ele>
        <time>2019-05-20T13:23:05Z</time>
      </trkpt>
      <trkpt lat="46.71927" lon="6.15561">
        <ele>1072</ele>
        <time>2019-05-20T13:23:16Z</time>
      </trkpt>
      <trkpt lat="46.71949" lon="6.15571">
        <ele>1072</ele>
        <time>2019-05-20T13:23:31Z</time>
      </trkpt>
      <trkpt lat="46.71952" lon="6.15584">
        <ele>1073</ele>
        <time>2019-05-20T13:23:44Z</time>
      </trkpt>
      <trkpt lat="46.71968" lon="6.15596">
        <ele>1075</ele>
        <time>2019-05-20T13:24:05Z</time>
      </trkpt>
      <trkpt lat="46.71964" lon="6.15613">
        <ele>1075</ele>
        <time>2019-05-20T13:24:09Z</time>
      </trkpt>
      <trkpt lat="46.71962" lon="6.15626">
        <ele>1075</ele>
        <time>2019-05-20T13:24:14Z</time>
      </trkpt>
      <trkpt lat="46.71963" lon="6.15638">
        <ele>1074</ele>
        <time>2019-05-20T13:24:18Z</time>
      </trkpt>
      <trkpt lat="46.71968" lon="6.15649">
        <ele>1074</ele>
        <time>2019-05-20T13:24:23Z</time>
      </trkpt>
      <trkpt lat="46.7198" lon="6.15654">
        <ele>1074</ele>
        <time>2019-05-20T13:24:35Z</time>
      </trkpt>
      <trkpt lat="46.71985" lon="6.15665">
        <ele>1072</ele>
        <time>2019-05-20T13:24:44Z</time>
      </trkpt>
      <trkpt lat="46.71984" lon="6.1568">
        <ele>1072</ele>
        <time>2019-05-20T13:24:50Z</time>
      </trkpt>
      <trkpt lat="46.71977" lon="6.15691">
        <ele>1072</ele>
        <time>2019-05-20T13:24:57Z</time>
      </trkpt>
      <trkpt lat="46.71971" lon="6.15704">
        <ele>1072</ele>
        <time>2019-05-20T13:25:03Z</time>
      </trkpt>
      <trkpt lat="46.71964" lon="6.1571">
        <ele>1070</ele>
        <time>2019-05-20T13:25:13Z</time>
      </trkpt>
      <trkpt lat="46.71957" lon="6.15719">
        <ele>1073</ele>
        <time>2019-05-20T13:25:30Z</time>
      </trkpt>
      <trkpt lat="46.71961" lon="6.15732">
        <ele>1072</ele>
        <time>2019-05-20T13:25:39Z</time>
      </trkpt>
      <trkpt lat="46.7197" lon="6.15736">
        <ele>1072</ele>
        <time>2019-05-20T13:25:47Z</time>
      </trkpt>
      <trkpt lat="46.71971" lon="6.15751">
        <ele>1073</ele>
        <time>2019-05-20T13:25:53Z</time>
      </trkpt>
      <trkpt lat="46.71981" lon="6.15756">
        <ele>1072</ele>
        <time>2019-05-20T13:26:02Z</time>
      </trkpt>
      <trkpt lat="46.7199" lon="6.15752">
        <ele>1071</ele>
        <time>2019-05-20T13:26:06Z</time>
      </trkpt>
      <trkpt lat="46.72" lon="6.15761">
        <ele>1070</ele>
        <time>2019-05-20T13:26:21Z</time>
      </trkpt>
      <trkpt lat="46.71996" lon="6.15776">
        <ele>1069</ele>
        <time>2019-05-20T13:26:27Z</time>
      </trkpt>
      <trkpt lat="46.71996" lon="6.15789">
        <ele>1070</ele>
        <time>2019-05-20T13:26:32Z</time>
      </trkpt>
      <trkpt lat="46.71995" lon="6.15802">
        <ele>1068</ele>
        <time>2019-05-20T13:26:38Z</time>
      </trkpt>
      <trkpt lat="46.71992" lon="6.15815">
        <ele>1068</ele>
        <time>2019-05-20T13:26:46Z</time>
      </trkpt>
      <trkpt lat="46.71995" lon="6.15827">
        <ele>1066</ele>
        <time>2019-05-20T13:26:56Z</time>
      </trkpt>
      <trkpt lat="46.72005" lon="6.15834">
        <ele>1064</ele>
        <time>2019-05-20T13:27:05Z</time>
      </trkpt>
      <trkpt lat="46.72014" lon="6.15839">
        <ele>1065</ele>
        <time>2019-05-20T13:27:11Z</time>
      </trkpt>
      <trkpt lat="46.72029" lon="6.15845">
        <ele>1063</ele>
        <time>2019-05-20T13:27:26Z</time>
      </trkpt>
      <trkpt lat="46.72036" lon="6.15853">
        <ele>1063</ele>
        <time>2019-05-20T13:27:34Z</time>
      </trkpt>
      <trkpt lat="46.7204" lon="6.15866">
        <ele>1062</ele>
        <time>2019-05-20T13:27:42Z</time>
      </trkpt>
      <trkpt lat="46.72042" lon="6.1589">
        <ele>1059</ele>
        <time>2019-05-20T13:27:54Z</time>
      </trkpt>
      <trkpt lat="46.7204" lon="6.15905">
        <ele>1059</ele>
        <time>2019-05-20T13:27:59Z</time>
      </trkpt>
      <trkpt lat="46.72042" lon="6.15933">
        <ele>1055</ele>
        <time>2019-05-20T13:28:22Z</time>
      </trkpt>
      <trkpt lat="46.72054" lon="6.15966">
        <ele>1050</ele>
        <time>2019-05-20T13:28:53Z</time>
      </trkpt>
      <trkpt lat="46.72066" lon="6.15987">
        <ele>1049</ele>
        <time>2019-05-20T13:29:06Z</time>
      </trkpt>
      <trkpt lat="46.72075" lon="6.15987">
        <ele>1049</ele>
        <time>2019-05-20T13:29:15Z</time>
      </trkpt>
      <trkpt lat="46.72082" lon="6.16015">
        <ele>1048</ele>
        <time>2019-05-20T13:29:27Z</time>
      </trkpt>
      <trkpt lat="46.72086" lon="6.16025">
        <ele>1047</ele>
        <time>2019-05-20T13:29:36Z</time>
      </trkpt>
      <trkpt lat="46.72094" lon="6.16036">
        <ele>1046</ele>
        <time>2019-05-20T13:29:45Z</time>
      </trkpt>
      <trkpt lat="46.72088" lon="6.16046">
        <ele>1043</ele>
        <time>2019-05-20T13:30:30Z</time>
      </trkpt>
      <trkpt lat="46.7208" lon="6.16061">
        <ele>1045</ele>
        <time>2019-05-20T13:30:45Z</time>
      </trkpt>
      <trkpt lat="46.72072" lon="6.16069">
        <ele>1044</ele>
        <time>2019-05-20T13:30:52Z</time>
      </trkpt>
      <trkpt lat="46.72063" lon="6.16079">
        <ele>1044</ele>
        <time>2019-05-20T13:30:58Z</time>
      </trkpt>
      <trkpt lat="46.72057" lon="6.16094">
        <ele>1045</ele>
        <time>2019-05-20T13:31:08Z</time>
      </trkpt>
      <trkpt lat="46.72048" lon="6.16112">
        <ele>1043</ele>
        <time>2019-05-20T13:31:25Z</time>
      </trkpt>
      <trkpt lat="46.72035" lon="6.16132">
        <ele>1043</ele>
        <time>2019-05-20T13:31:35Z</time>
      </trkpt>
      <trkpt lat="46.72023" lon="6.16157">
        <ele>1041</ele>
        <time>2019-05-20T13:31:54Z</time>
      </trkpt>
      <trkpt lat="46.72013" lon="6.16182">
        <ele>1040</ele>
        <time>2019-05-20T13:32:11Z</time>
      </trkpt>
      <trkpt lat="46.72008" lon="6.16193">
        <ele>1040</ele>
        <time>2019-05-20T13:32:17Z</time>
      </trkpt>
      <trkpt lat="46.72" lon="6.16202">
        <ele>1040</ele>
        <time>2019-05-20T13:32:27Z</time>
      </trkpt>
      <trkpt lat="46.71998" lon="6.16215">
        <ele>1040</ele>
        <time>2019-05-20T13:32:34Z</time>
      </trkpt>
      <trkpt lat="46.71993" lon="6.16226">
        <ele>1039</ele>
        <time>2019-05-20T13:32:42Z</time>
      </trkpt>
      <trkpt lat="46.71988" lon="6.16242">
        <ele>1040</ele>
        <time>2019-05-20T13:32:52Z</time>
      </trkpt>
      <trkpt lat="46.71988" lon="6.16257">
        <ele>1039</ele>
        <time>2019-05-20T13:32:59Z</time>
      </trkpt>
      <trkpt lat="46.71997" lon="6.16273">
        <ele>1039</ele>
        <time>2019-05-20T13:33:12Z</time>
      </trkpt>
      <trkpt lat="46.72" lon="6.16288">
        <ele>1039</ele>
        <time>2019-05-20T13:33:19Z</time>
      </trkpt>
      <trkpt lat="46.72" lon="6.16301">
        <ele>1040</ele>
        <time>2019-05-20T13:33:28Z</time>
      </trkpt>
      <trkpt lat="46.72004" lon="6.16312">
        <ele>1039</ele>
        <time>2019-05-20T13:33:36Z</time>
      </trkpt>
      <trkpt lat="46.72011" lon="6.16325">
        <ele>1039</ele>
        <time>2019-05-20T13:33:45Z</time>
      </trkpt>
      <trkpt lat="46.72016" lon="6.16336">
        <ele>1040</ele>
        <time>2019-05-20T13:33:51Z</time>
      </trkpt>
      <trkpt lat="46.7202" lon="6.16351">
        <ele>1040</ele>
        <time>2019-05-20T13:33:57Z</time>
      </trkpt>
      <trkpt lat="46.72023" lon="6.16363">
        <ele>1038</ele>
        <time>2019-05-20T13:34:06Z</time>
      </trkpt>
      <trkpt lat="46.72038" lon="6.16375">
        <ele>1038</ele>
        <time>2019-05-20T13:34:18Z</time>
      </trkpt>
      <trkpt lat="46.72041" lon="6.16389">
        <ele>1038</ele>
        <time>2019-05-20T13:34:23Z</time>
      </trkpt>
      <trkpt lat="46.72044" lon="6.1641">
        <ele>1038</ele>
        <time>2019-05-20T13:34:38Z</time>
      </trkpt>
      <trkpt lat="46.72054" lon="6.16423">
        <ele>1039</ele>
        <time>2019-05-20T13:34:49Z</time>
      </trkpt>
      <trkpt lat="46.72043" lon="6.16453">
        <ele>1038</ele>
        <time>2019-05-20T13:34:54Z</time>
      </trkpt>
      <trkpt lat="46.72047" lon="6.16474">
        <ele>1038</ele>
        <time>2019-05-20T13:35:06Z</time>
      </trkpt>
      <trkpt lat="46.72049" lon="6.16488">
        <ele>1036</ele>
        <time>2019-05-20T13:35:13Z</time>
      </trkpt>
      <trkpt lat="46.72048" lon="6.16503">
        <ele>1036</ele>
        <time>2019-05-20T13:35:20Z</time>
      </trkpt>
      <trkpt lat="46.72048" lon="6.16517">
        <ele>1037</ele>
        <time>2019-05-20T13:35:27Z</time>
      </trkpt>
      <trkpt lat="46.72048" lon="6.16537">
        <ele>1035</ele>
        <time>2019-05-20T13:35:36Z</time>
      </trkpt>
      <trkpt lat="46.72053" lon="6.16561">
        <ele>1035</ele>
        <time>2019-05-20T13:35:50Z</time>
      </trkpt>
      <trkpt lat="46.72049" lon="6.16574">
        <ele>1035</ele>
        <time>2019-05-20T13:35:54Z</time>
      </trkpt>
      <trkpt lat="46.72051" lon="6.1659">
        <ele>1034</ele>
        <time>2019-05-20T13:36:01Z</time>
      </trkpt>
      <trkpt lat="46.72057" lon="6.16605">
        <ele>1032</ele>
        <time>2019-05-20T13:36:07Z</time>
      </trkpt>
      <trkpt lat="46.72061" lon="6.16627">
        <ele>1031</ele>
        <time>2019-05-20T13:36:27Z</time>
      </trkpt>
      <trkpt lat="46.72061" lon="6.16641">
        <ele>1032</ele>
        <time>2019-05-20T13:36:34Z</time>
      </trkpt>
      <trkpt lat="46.72059" lon="6.16656">
        <ele>1032</ele>
        <time>2019-05-20T13:36:40Z</time>
      </trkpt>
      <trkpt lat="46.7206" lon="6.1667">
        <ele>1031</ele>
        <time>2019-05-20T13:36:48Z</time>
      </trkpt>
      <trkpt lat="46.72056" lon="6.16688">
        <ele>1030</ele>
        <time>2019-05-20T13:36:57Z</time>
      </trkpt>
      <trkpt lat="46.72055" lon="6.167">
        <ele>1030</ele>
        <time>2019-05-20T13:37:06Z</time>
      </trkpt>
      <trkpt lat="46.72053" lon="6.16716">
        <ele>1029</ele>
        <time>2019-05-20T13:37:16Z</time>
      </trkpt>
      <trkpt lat="46.7205" lon="6.16736">
        <ele>1029</ele>
        <time>2019-05-20T13:37:32Z</time>
      </trkpt>
      <trkpt lat="46.72045" lon="6.16749">
        <ele>1028</ele>
        <time>2019-05-20T13:37:38Z</time>
      </trkpt>
      <trkpt lat="46.72042" lon="6.16762">
        <ele>1029</ele>
        <time>2019-05-20T13:37:47Z</time>
      </trkpt>
      <trkpt lat="46.72036" lon="6.16789">
        <ele>1029</ele>
        <time>2019-05-20T13:38:05Z</time>
      </trkpt>
      <trkpt lat="46.72035" lon="6.16806">
        <ele>1027</ele>
        <time>2019-05-20T13:38:20Z</time>
      </trkpt>
      <trkpt lat="46.72031" lon="6.16821">
        <ele>1028</ele>
        <time>2019-05-20T13:38:27Z</time>
      </trkpt>
      <trkpt lat="46.72025" lon="6.16831">
        <ele>1028</ele>
        <time>2019-05-20T13:38:33Z</time>
      </trkpt>
      <trkpt lat="46.72016" lon="6.16847">
        <ele>1029</ele>
        <time>2019-05-20T13:38:49Z</time>
      </trkpt>
      <trkpt lat="46.72006" lon="6.16863">
        <ele>1030</ele>
        <time>2019-05-20T13:39:02Z</time>
      </trkpt>
      <trkpt lat="46.71993" lon="6.16879">
        <ele>1027</ele>
        <time>2019-05-20T13:39:21Z</time>
      </trkpt>
      <trkpt lat="46.71975" lon="6.16892">
        <ele>1026</ele>
        <time>2019-05-20T13:39:35Z</time>
      </trkpt>
      <trkpt lat="46.71966" lon="6.16895">
        <ele>1024</ele>
        <time>2019-05-20T13:39:48Z</time>
      </trkpt>
      <trkpt lat="46.71956" lon="6.16893">
        <ele>1023</ele>
        <time>2019-05-20T13:39:58Z</time>
      </trkpt>
      <trkpt lat="46.71939" lon="6.16906">
        <ele>1021</ele>
        <time>2019-05-20T13:40:15Z</time>
      </trkpt>
      <trkpt lat="46.71927" lon="6.16909">
        <ele>1021</ele>
        <time>2019-05-20T13:40:18Z</time>
      </trkpt>
      <trkpt lat="46.71926" lon="6.16922">
        <ele>1021</ele>
        <time>2019-05-20T13:40:30Z</time>
      </trkpt>
      <trkpt lat="46.71925" lon="6.16936">
        <ele>1021</ele>
        <time>2019-05-20T13:40:38Z</time>
      </trkpt>
      <trkpt lat="46.71922" lon="6.16949">
        <ele>1021</ele>
        <time>2019-05-20T13:40:45Z</time>
      </trkpt>
      <trkpt lat="46.7192" lon="6.16965">
        <ele>1020</ele>
        <time>2019-05-20T13:40:51Z</time>
      </trkpt>
      <trkpt lat="46.71923" lon="6.16984">
        <ele>1019</ele>
        <time>2019-05-20T13:41:01Z</time>
      </trkpt>
      <trkpt lat="46.71934" lon="6.16988">
        <ele>1020</ele>
        <time>2019-05-20T13:41:13Z</time>
      </trkpt>
      <trkpt lat="46.71935" lon="6.17004">
        <ele>1020</ele>
        <time>2019-05-20T13:41:19Z</time>
      </trkpt>
      <trkpt lat="46.71939" lon="6.17016">
        <ele>1020</ele>
        <time>2019-05-20T13:41:27Z</time>
      </trkpt>
      <trkpt lat="46.71945" lon="6.17027">
        <ele>1019</ele>
        <time>2019-05-20T13:41:36Z</time>
      </trkpt>
      <trkpt lat="46.71954" lon="6.17052">
        <ele>1016</ele>
        <time>2019-05-20T13:41:53Z</time>
      </trkpt>
      <trkpt lat="46.71963" lon="6.17057">
        <ele>1015</ele>
        <time>2019-05-20T13:42:03Z</time>
      </trkpt>
      <trkpt lat="46.71972" lon="6.17067">
        <ele>1014</ele>
        <time>2019-05-20T13:42:13Z</time>
      </trkpt>
      <trkpt lat="46.71985" lon="6.17084">
        <ele>1014</ele>
        <time>2019-05-20T13:42:31Z</time>
      </trkpt>
      <trkpt lat="46.71978" lon="6.17095">
        <ele>1014</ele>
        <time>2019-05-20T13:42:34Z</time>
      </trkpt>
      <trkpt lat="46.71966" lon="6.17115">
        <ele>1013</ele>
        <time>2019-05-20T13:42:42Z</time>
      </trkpt>
      <trkpt lat="46.71961" lon="6.17129">
        <ele>1012</ele>
        <time>2019-05-20T13:42:52Z</time>
      </trkpt>
      <trkpt lat="46.71954" lon="6.17155">
        <ele>1012</ele>
        <time>2019-05-20T13:43:05Z</time>
      </trkpt>
      <trkpt lat="46.71943" lon="6.17171">
        <ele>1010</ele>
        <time>2019-05-20T13:43:24Z</time>
      </trkpt>
    </trkseg>
  </trk>
</gpx>